BAW3PB KPHX-EGLL
Flight info
| Callsign | BAW3PB |
|---|---|
| Flight time | 9h 14m |
| Altitude | 35000 |
| Route | MRBIL1 JARPA DCT RSK DCT ALS J13 FQF DCT SNY DCT KD78A DCT KP90E/N0488F370 DCT KP06G DCT DLH Q924 AGLIN DCT 50N085W 5230N08000W 56N070W DCT LAKES/M085F370 DCT TOXIT DCT 60N050W/M084F390 6030N04000W 60N030W 59N020W DCT AGORI/N0481F390 DCT OSBOX DCT MIMKU DCT KELLY L10 WAL UY53 NUGRA |
| Aircraft | A35K/H-SDE2E3GHIJ3J4J5LM1ORWXY/LB1D1 |
Departure
| Time | 2026-05-04 20:32 |
|---|---|
| Airport | Phoenix Sky Harbor International Airport (KPHX) |
Arrival
| Time | 2026-05-05 05:46 |
|---|---|
| Airport | London Heathrow Airport (EGLL) |
| Time | Latitude | Longitude | Altitude | Speed | Heading |
|---|---|---|---|---|---|
| 2026-05-04 19:56 | 33.43850 | -111.99402 | 1131 ft | 0 kts | 203° |
| 2026-05-04 20:25 | 33.43851 | -111.99402 | 1131 ft | 1 kts | 203° |
| 2026-05-04 20:25 | 33.43873 | -111.99394 | 1134 ft | 4 kts | 181° |
| 2026-05-04 20:25 | 33.43895 | -111.99401 | 1137 ft | 4 kts | 130° |
| 2026-05-04 20:25 | 33.43904 | -111.99424 | 1136 ft | 1 kts | 90° |
| 2026-05-04 20:28 | 33.43904 | -111.99412 | 1136 ft | 3 kts | 91° |
| 2026-05-04 20:28 | 33.43903 | -111.99375 | 1134 ft | 6 kts | 90° |
| 2026-05-04 20:28 | 33.43904 | -111.99303 | 1131 ft | 11 kts | 89° |
| 2026-05-04 20:29 | 33.43870 | -111.99228 | 1133 ft | 11 kts | 164° |
| 2026-05-04 20:29 | 33.43779 | -111.99226 | 1135 ft | 15 kts | 179° |
| 2026-05-04 20:29 | 33.43664 | -111.99226 | 1133 ft | 18 kts | 180° |
| 2026-05-04 20:29 | 33.43534 | -111.99226 | 1133 ft | 20 kts | 180° |
| 2026-05-04 20:30 | 33.43433 | -111.99241 | 1135 ft | 13 kts | 195° |
| 2026-05-04 20:30 | 33.43335 | -111.99246 | 1134 ft | 15 kts | 180° |
| 2026-05-04 20:30 | 33.43239 | -111.99251 | 1137 ft | 10 kts | 192° |
| 2026-05-04 20:30 | 33.43178 | -111.99294 | 1140 ft | 10 kts | 223° |
| 2026-05-04 20:31 | 33.43133 | -111.99350 | 1143 ft | 10 kts | 226° |
| 2026-05-04 20:31 | 33.43105 | -111.99428 | 1143 ft | 11 kts | 268° |
| 2026-05-04 20:31 | 33.43103 | -111.99607 | 1143 ft | 53 kts | 270° |
| 2026-05-04 20:31 | 33.43106 | -112.00426 | 1139 ft | 142 kts | 270° |
| 2026-05-04 20:32 | 33.43103 | -112.01882 | 1486 ft | 189 kts | 269° |
| 2026-05-04 20:32 | 33.43093 | -112.03431 | 2774 ft | 184 kts | 269° |
| 2026-05-04 20:32 | 33.43111 | -112.05037 | 3811 ft | 205 kts | 269° |
| 2026-05-04 20:32 | 33.43164 | -112.06830 | 4726 ft | 224 kts | 269° |
| 2026-05-04 20:33 | 33.43228 | -112.08732 | 5388 ft | 235 kts | 268° |
| 2026-05-04 20:33 | 33.43282 | -112.10705 | 6045 ft | 245 kts | 267° |
| 2026-05-04 20:33 | 33.43341 | -112.12752 | 6918 ft | 246 kts | 267° |
| 2026-05-04 20:33 | 33.43401 | -112.14783 | 7955 ft | 241 kts | 267° |
| 2026-05-04 20:34 | 33.43670 | -112.16763 | 9000 ft | 245 kts | 283° |
| 2026-05-04 20:34 | 33.44590 | -112.18524 | 9927 ft | 261 kts | 309° |
| 2026-05-04 20:34 | 33.46222 | -112.19626 | 10677 ft | 284 kts | 340° |
| 2026-05-04 20:34 | 33.48222 | -112.19806 | 11668 ft | 291 kts | 354° |
| 2026-05-04 20:35 | 33.50250 | -112.19742 | 12682 ft | 292 kts | 355° |
| 2026-05-04 20:35 | 33.52286 | -112.19654 | 13559 ft | 295 kts | 357° |
| 2026-05-04 20:35 | 33.54353 | -112.19257 | 14237 ft | 309 kts | 6° |
| 2026-05-04 20:35 | 33.56512 | -112.18641 | 14626 ft | 329 kts | 8° |
| 2026-05-04 20:36 | 33.58801 | -112.17957 | 14947 ft | 348 kts | 8° |
| 2026-05-04 20:36 | 33.61180 | -112.17030 | 15280 ft | 375 kts | 21° |
| 2026-05-04 20:36 | 33.63345 | -112.15107 | 15622 ft | 401 kts | 41° |
| 2026-05-04 20:36 | 33.65301 | -112.12608 | 15969 ft | 419 kts | 44° |
| 2026-05-04 20:37 | 33.67287 | -112.09981 | 16503 ft | 429 kts | 44° |
| 2026-05-04 20:37 | 33.69323 | -112.07320 | 17138 ft | 436 kts | 43° |
| 2026-05-04 20:37 | 33.71400 | -112.04633 | 17798 ft | 442 kts | 43° |
| 2026-05-04 20:37 | 33.73501 | -112.01933 | 18596 ft | 443 kts | 43° |
| 2026-05-04 20:38 | 33.75546 | -111.99128 | 19129 ft | 451 kts | 48° |
| 2026-05-04 20:38 | 33.77494 | -111.96116 | 19618 ft | 460 kts | 50° |
| 2026-05-04 20:38 | 33.79416 | -111.93068 | 20159 ft | 467 kts | 50° |
| 2026-05-04 20:38 | 33.81390 | -111.89935 | 20698 ft | 474 kts | 51° |
| 2026-05-04 20:39 | 33.83399 | -111.86749 | 21242 ft | 481 kts | 51° |
| 2026-05-04 20:39 | 33.85435 | -111.83524 | 21781 ft | 487 kts | 51° |
| 2026-05-04 20:39 | 33.87498 | -111.80256 | 22320 ft | 494 kts | 51° |
| 2026-05-04 20:39 | 33.89591 | -111.76937 | 22831 ft | 501 kts | 52° |
| 2026-05-04 20:40 | 33.91716 | -111.73568 | 23308 ft | 509 kts | 52° |
| 2026-05-04 20:40 | 33.93871 | -111.70151 | 23763 ft | 515 kts | 52° |
| 2026-05-04 20:40 | 33.96041 | -111.66703 | 24304 ft | 518 kts | 52° |
| 2026-05-04 20:40 | 33.98234 | -111.63239 | 24817 ft | 522 kts | 50° |
| 2026-05-04 20:41 | 34.00707 | -111.60027 | 25314 ft | 524 kts | 38° |
| 2026-05-04 20:41 | 34.03617 | -111.57408 | 25816 ft | 522 kts | 28° |
| 2026-05-04 20:41 | 34.06684 | -111.55037 | 26384 ft | 526 kts | 27° |
| 2026-05-04 20:41 | 34.09791 | -111.52673 | 26923 ft | 531 kts | 27° |
| 2026-05-04 20:42 | 34.12926 | -111.50265 | 27439 ft | 535 kts | 27° |
| 2026-05-04 20:42 | 34.16068 | -111.47848 | 27983 ft | 539 kts | 27° |
| 2026-05-04 20:42 | 34.19244 | -111.45399 | 28541 ft | 543 kts | 27° |
| 2026-05-04 20:42 | 34.22443 | -111.42944 | 29013 ft | 547 kts | 26° |
| 2026-05-04 20:43 | 34.25668 | -111.40471 | 29475 ft | 552 kts | 26° |
| 2026-05-04 20:43 | 34.28918 | -111.37970 | 29978 ft | 555 kts | 26° |
| 2026-05-04 20:43 | 34.32188 | -111.35451 | 30370 ft | 559 kts | 26° |
| 2026-05-04 20:43 | 34.35480 | -111.32912 | 30726 ft | 565 kts | 26° |
| 2026-05-04 20:44 | 34.38806 | -111.30339 | 31043 ft | 568 kts | 26° |
| 2026-05-04 20:44 | 34.42139 | -111.27757 | 31387 ft | 571 kts | 26° |
| 2026-05-04 20:44 | 34.45458 | -111.25186 | 31615 ft | 575 kts | 26° |
| 2026-05-04 20:44 | 34.48838 | -111.22567 | 31966 ft | 578 kts | 26° |
| 2026-05-04 20:45 | 34.52233 | -111.19929 | 32288 ft | 582 kts | 26° |
| 2026-05-04 20:45 | 34.55647 | -111.17273 | 32668 ft | 583 kts | 25° |
| 2026-05-04 20:45 | 34.59057 | -111.14616 | 33144 ft | 582 kts | 25° |
| 2026-05-04 20:45 | 34.62387 | -111.11775 | 33613 ft | 589 kts | 32° |
| 2026-05-04 20:46 | 34.65425 | -111.08423 | 34138 ft | 592 kts | 38° |
| 2026-05-04 20:46 | 34.68361 | -111.04905 | 34485 ft | 593 kts | 39° |
| 2026-05-04 20:46 | 34.71277 | -111.01360 | 34807 ft | 594 kts | 39° |
| 2026-05-04 20:46 | 34.74195 | -110.97810 | 34895 ft | 594 kts | 39° |
| 2026-05-04 20:47 | 34.80046 | -110.90695 | 34929 ft | 595 kts | 39° |
| 2026-05-04 20:47 | 34.85910 | -110.83571 | 34966 ft | 596 kts | 39° |
| 2026-05-04 20:48 | 34.91774 | -110.76429 | 35010 ft | 596 kts | 39° |
| 2026-05-04 20:48 | 34.97637 | -110.69277 | 35019 ft | 598 kts | 39° |
| 2026-05-04 20:49 | 35.03486 | -110.62126 | 34859 ft | 599 kts | 39° |
| 2026-05-04 20:49 | 35.09368 | -110.54916 | 34843 ft | 600 kts | 39° |
| 2026-05-04 20:50 | 35.15248 | -110.47694 | 34842 ft | 600 kts | 39° |
| 2026-05-04 20:50 | 35.21119 | -110.40466 | 34835 ft | 598 kts | 38° |
| 2026-05-04 20:51 | 35.26975 | -110.33245 | 34840 ft | 598 kts | 39° |
| 2026-05-04 20:51 | 35.32828 | -110.26017 | 34833 ft | 598 kts | 39° |
| 2026-05-04 20:52 | 35.38676 | -110.18774 | 34830 ft | 598 kts | 39° |
| 2026-05-04 20:52 | 35.44519 | -110.11514 | 34826 ft | 598 kts | 38° |
| 2026-05-04 20:53 | 35.50338 | -110.04271 | 34829 ft | 595 kts | 38° |
| 2026-05-04 20:53 | 35.56138 | -109.97040 | 34837 ft | 594 kts | 39° |
| 2026-05-04 20:54 | 35.61899 | -109.89842 | 34833 ft | 595 kts | 39° |
| 2026-05-04 20:54 | 35.67701 | -109.82576 | 34829 ft | 595 kts | 39° |
| 2026-05-04 20:55 | 35.73226 | -109.74926 | 34828 ft | 600 kts | 45° |
| 2026-05-04 20:55 | 35.78367 | -109.66837 | 34824 ft | 600 kts | 47° |
| 2026-05-04 20:56 | 35.83431 | -109.58657 | 34818 ft | 600 kts | 47° |
| 2026-05-04 20:56 | 35.88508 | -109.50490 | 34818 ft | 600 kts | 47° |
| 2026-05-04 20:57 | 35.93603 | -109.42339 | 34816 ft | 599 kts | 46° |
| 2026-05-04 20:57 | 35.98686 | -109.34206 | 34824 ft | 598 kts | 46° |
| 2026-05-04 20:58 | 36.03724 | -109.26128 | 34821 ft | 597 kts | 46° |
| 2026-05-04 20:58 | 36.08792 | -109.17975 | 34825 ft | 598 kts | 46° |
| 2026-05-04 20:59 | 36.13855 | -109.09816 | 34823 ft | 598 kts | 46° |
| 2026-05-04 20:59 | 36.18899 | -109.01661 | 34821 ft | 596 kts | 46° |
| 2026-05-04 21:00 | 36.23934 | -108.93506 | 34806 ft | 596 kts | 46° |
| 2026-05-04 21:00 | 36.28969 | -108.85334 | 34812 ft | 597 kts | 46° |
| 2026-05-04 21:01 | 36.33996 | -108.77149 | 34820 ft | 597 kts | 46° |
| 2026-05-04 21:01 | 36.39014 | -108.68955 | 34807 ft | 596 kts | 46° |
| 2026-05-04 21:02 | 36.44024 | -108.60760 | 34802 ft | 596 kts | 46° |
| 2026-05-04 21:02 | 36.49034 | -108.52548 | 34838 ft | 596 kts | 46° |
| 2026-05-04 21:03 | 36.54043 | -108.44319 | 34815 ft | 598 kts | 46° |
| 2026-05-04 21:03 | 36.58981 | -108.36181 | 34936 ft | 598 kts | 46° |
| 2026-05-04 21:04 | 36.63981 | -108.27921 | 34981 ft | 598 kts | 46° |
| 2026-05-04 21:04 | 36.68978 | -108.19646 | 34986 ft | 597 kts | 46° |
| 2026-05-04 21:05 | 36.73838 | -108.11222 | 34988 ft | 604 kts | 55° |
| 2026-05-04 21:05 | 36.77200 | -108.01548 | 34945 ft | 611 kts | 67° |
| 2026-05-04 21:06 | 36.80001 | -107.91514 | 34905 ft | 613 kts | 69° |
| 2026-05-04 21:06 | 36.82676 | -107.81421 | 34862 ft | 613 kts | 69° |
| 2026-05-04 21:07 | 36.85365 | -107.71333 | 34901 ft | 612 kts | 69° |
| 2026-05-04 21:07 | 36.88084 | -107.61258 | 34896 ft | 612 kts | 69° |
| 2026-05-04 21:08 | 36.90800 | -107.51188 | 34885 ft | 611 kts | 69° |
| 2026-05-04 21:08 | 36.93507 | -107.41117 | 34866 ft | 611 kts | 69° |
| 2026-05-04 21:09 | 36.96198 | -107.31047 | 34853 ft | 611 kts | 69° |
| 2026-05-04 21:09 | 36.98864 | -107.21037 | 34862 ft | 611 kts | 69° |
| 2026-05-04 21:10 | 37.01539 | -107.10944 | 34868 ft | 611 kts | 69° |
| 2026-05-04 21:10 | 37.04203 | -107.00848 | 34894 ft | 611 kts | 69° |
| 2026-05-04 21:11 | 37.06864 | -106.90741 | 34899 ft | 611 kts | 69° |
| 2026-05-04 21:11 | 37.09517 | -106.80625 | 34903 ft | 611 kts | 69° |
| 2026-05-04 21:12 | 37.12158 | -106.70506 | 34916 ft | 611 kts | 69° |
| 2026-05-04 21:12 | 37.14791 | -106.60384 | 34909 ft | 609 kts | 69° |
| 2026-05-04 21:13 | 37.17411 | -106.50289 | 34918 ft | 609 kts | 69° |
| 2026-05-04 21:13 | 37.20014 | -106.40188 | 34901 ft | 609 kts | 69° |
| 2026-05-04 21:14 | 37.22608 | -106.30083 | 34871 ft | 608 kts | 69° |
| 2026-05-04 21:14 | 37.25169 | -106.20062 | 34849 ft | 607 kts | 69° |
| 2026-05-04 21:15 | 37.27740 | -106.09973 | 34833 ft | 607 kts | 69° |
| 2026-05-04 21:15 | 37.30303 | -105.99879 | 34814 ft | 607 kts | 69° |
| 2026-05-04 21:16 | 37.32727 | -105.91646 | 34965 ft | 601 kts | 57° |
| 2026-05-04 21:16 | 37.34905 | -105.87218 | 34981 ft | 590 kts | 45° |
| 2026-05-04 21:16 | 37.37632 | -105.83476 | 34980 ft | 573 kts | 32° |
| 2026-05-04 21:17 | 37.40780 | -105.80563 | 34978 ft | 552 kts | 19° |
| 2026-05-04 21:17 | 37.44177 | -105.78543 | 34981 ft | 531 kts | 6° |
| 2026-05-04 21:17 | 37.51170 | -105.75907 | 34963 ft | 522 kts | 2° |
| 2026-05-04 21:18 | 37.58187 | -105.73622 | 34921 ft | 521 kts | 1° |
| 2026-05-04 21:18 | 37.65220 | -105.71330 | 34870 ft | 523 kts | 2° |
| 2026-05-04 21:19 | 37.72275 | -105.68969 | 34816 ft | 525 kts | 2° |
| 2026-05-04 21:19 | 37.79334 | -105.66569 | 34782 ft | 525 kts | 2° |
| 2026-05-04 21:20 | 37.86395 | -105.64161 | 34797 ft | 526 kts | 2° |
| 2026-05-04 21:20 | 37.93450 | -105.61747 | 34778 ft | 524 kts | 2° |
| 2026-05-04 21:21 | 38.00494 | -105.59335 | 34766 ft | 524 kts | 2° |
| 2026-05-04 21:21 | 38.07487 | -105.56948 | 34762 ft | 524 kts | 2° |
| 2026-05-04 21:22 | 38.14525 | -105.54546 | 34754 ft | 524 kts | 2° |
| 2026-05-04 21:22 | 38.21577 | -105.52125 | 34739 ft | 525 kts | 2° |
| 2026-05-04 21:23 | 38.28636 | -105.49694 | 34702 ft | 526 kts | 2° |
| 2026-05-04 21:23 | 38.35692 | -105.47255 | 34706 ft | 525 kts | 2° |
| 2026-05-04 21:24 | 38.42735 | -105.44821 | 34685 ft | 524 kts | 2° |
| 2026-05-04 21:24 | 38.49776 | -105.42387 | 34665 ft | 524 kts | 2° |
| 2026-05-04 21:25 | 38.56812 | -105.39938 | 34702 ft | 524 kts | 2° |
| 2026-05-04 21:25 | 38.60292 | -105.38419 | 34672 ft | 535 kts | 11° |
| 2026-05-04 21:25 | 38.63677 | -105.36355 | 34672 ft | 541 kts | 15° |
| 2026-05-04 21:26 | 38.70366 | -105.31843 | 34636 ft | 545 kts | 17° |
| 2026-05-04 21:26 | 38.76973 | -105.27206 | 34641 ft | 545 kts | 17° |
| 2026-05-04 21:27 | 38.83594 | -105.22537 | 34640 ft | 541 kts | 17° |
| 2026-05-04 21:27 | 38.90176 | -105.17928 | 34638 ft | 538 kts | 17° |
| 2026-05-04 21:28 | 38.96747 | -105.13340 | 34678 ft | 538 kts | 17° |
| 2026-05-04 21:28 | 39.03320 | -105.08737 | 34676 ft | 538 kts | 17° |
| 2026-05-04 21:29 | 39.09875 | -105.04124 | 34699 ft | 536 kts | 17° |
| 2026-05-04 21:29 | 39.16415 | -104.99519 | 34784 ft | 535 kts | 17° |
| 2026-05-04 21:30 | 39.22897 | -104.94947 | 34763 ft | 535 kts | 18° |
| 2026-05-04 21:30 | 39.29423 | -104.90326 | 34776 ft | 534 kts | 18° |
| 2026-05-04 21:31 | 39.39150 | -104.83429 | 34836 ft | 530 kts | 18° |
| 2026-05-04 21:32 | 39.45614 | -104.78836 | 34870 ft | 530 kts | 18° |
| 2026-05-04 21:32 | 39.52082 | -104.74230 | 34883 ft | 530 kts | 18° |
| 2026-05-04 21:33 | 39.58494 | -104.69647 | 34871 ft | 528 kts | 18° |
| 2026-05-04 21:33 | 39.64912 | -104.65051 | 34857 ft | 527 kts | 18° |
| 2026-05-04 21:34 | 39.71084 | -104.59691 | 34880 ft | 543 kts | 30° |
| 2026-05-04 21:34 | 39.76875 | -104.53330 | 34878 ft | 546 kts | 32° |
| 2026-05-04 21:35 | 39.82589 | -104.46792 | 34877 ft | 547 kts | 32° |
| 2026-05-04 21:35 | 39.88291 | -104.40242 | 34840 ft | 547 kts | 32° |
| 2026-05-04 21:36 | 39.93971 | -104.33740 | 34786 ft | 547 kts | 32° |
| 2026-05-04 21:36 | 39.99688 | -104.27199 | 34730 ft | 547 kts | 32° |
| 2026-05-04 21:37 | 40.05403 | -104.20649 | 34689 ft | 545 kts | 33° |
| 2026-05-04 21:37 | 40.11078 | -104.14121 | 34686 ft | 543 kts | 33° |
| 2026-05-04 21:38 | 40.16737 | -104.07601 | 34685 ft | 542 kts | 33° |
| 2026-05-04 21:38 | 40.22391 | -104.01076 | 34768 ft | 542 kts | 33° |
| 2026-05-04 21:39 | 40.28006 | -103.94578 | 34802 ft | 542 kts | 33° |
| 2026-05-04 21:39 | 40.33653 | -103.88028 | 34816 ft | 541 kts | 33° |
| 2026-05-04 21:40 | 40.39283 | -103.81479 | 34814 ft | 541 kts | 33° |
| 2026-05-04 21:40 | 40.44901 | -103.74930 | 34799 ft | 540 kts | 33° |
| 2026-05-04 21:41 | 40.50520 | -103.68367 | 34767 ft | 540 kts | 33° |
| 2026-05-04 21:41 | 40.56135 | -103.61794 | 34750 ft | 540 kts | 33° |
| 2026-05-04 21:42 | 40.61747 | -103.55207 | 34765 ft | 541 kts | 33° |
| 2026-05-04 21:42 | 40.67319 | -103.48653 | 34799 ft | 541 kts | 34° |
| 2026-05-04 21:43 | 40.72915 | -103.42053 | 34788 ft | 539 kts | 34° |
| 2026-05-04 21:43 | 40.78493 | -103.35458 | 34762 ft | 538 kts | 34° |
| 2026-05-04 21:44 | 40.84055 | -103.28868 | 34743 ft | 537 kts | 34° |
| 2026-05-04 21:44 | 40.89609 | -103.22275 | 34741 ft | 537 kts | 34° |
| 2026-05-04 21:45 | 40.95120 | -103.15717 | 34752 ft | 536 kts | 34° |
| 2026-05-04 21:45 | 41.00658 | -103.09110 | 34830 ft | 536 kts | 34° |
| 2026-05-04 21:46 | 41.06184 | -103.02500 | 34844 ft | 535 kts | 35° |
| 2026-05-04 21:46 | 41.11498 | -102.95550 | 34841 ft | 540 kts | 41° |
| 2026-05-04 21:47 | 41.16532 | -102.88141 | 34839 ft | 541 kts | 42° |
| 2026-05-04 21:47 | 41.21514 | -102.80650 | 34813 ft | 541 kts | 43° |
| 2026-05-04 21:48 | 41.26491 | -102.73144 | 34800 ft | 539 kts | 42° |
| 2026-05-04 21:48 | 41.31402 | -102.65733 | 34776 ft | 536 kts | 43° |
| 2026-05-04 21:49 | 41.36328 | -102.58298 | 34792 ft | 535 kts | 43° |
| 2026-05-04 21:49 | 41.41247 | -102.50859 | 34790 ft | 535 kts | 43° |
| 2026-05-04 21:50 | 41.46163 | -102.43401 | 34821 ft | 535 kts | 43° |
| 2026-05-04 21:50 | 41.51074 | -102.35935 | 34825 ft | 534 kts | 43° |
| 2026-05-04 21:51 | 41.55955 | -102.28489 | 34835 ft | 532 kts | 43° |
| 2026-05-04 21:51 | 41.60787 | -102.21103 | 34833 ft | 531 kts | 43° |
| 2026-05-04 21:52 | 41.65644 | -102.13663 | 34845 ft | 531 kts | 43° |
| 2026-05-04 21:52 | 41.70494 | -102.06214 | 34845 ft | 531 kts | 43° |
| 2026-05-04 21:53 | 41.75342 | -101.98748 | 34854 ft | 531 kts | 43° |
| 2026-05-04 21:53 | 41.80178 | -101.91284 | 34862 ft | 529 kts | 44° |
| 2026-05-04 21:54 | 41.84952 | -101.83892 | 34856 ft | 527 kts | 44° |
| 2026-05-04 21:54 | 41.89743 | -101.76457 | 34855 ft | 526 kts | 44° |
| 2026-05-04 21:55 | 41.94529 | -101.69014 | 34864 ft | 526 kts | 44° |
| 2026-05-04 21:55 | 41.99310 | -101.61560 | 34865 ft | 527 kts | 44° |
| 2026-05-04 21:56 | 42.04087 | -101.54091 | 34881 ft | 527 kts | 44° |
| 2026-05-04 21:56 | 42.08858 | -101.46617 | 34869 ft | 526 kts | 44° |
| 2026-05-04 21:57 | 42.13587 | -101.39187 | 34879 ft | 526 kts | 44° |
| 2026-05-04 21:57 | 42.18346 | -101.31692 | 34879 ft | 526 kts | 44° |
| 2026-05-04 21:58 | 42.23098 | -101.24190 | 34879 ft | 526 kts | 44° |
| 2026-05-04 21:58 | 42.27852 | -101.16664 | 34881 ft | 527 kts | 44° |
| 2026-05-04 21:59 | 42.32603 | -101.09125 | 34885 ft | 527 kts | 44° |
| 2026-05-04 21:59 | 42.37314 | -101.01627 | 34888 ft | 527 kts | 44° |
| 2026-05-04 22:00 | 42.42055 | -100.94065 | 34901 ft | 527 kts | 44° |
| 2026-05-04 22:00 | 42.46794 | -100.86486 | 34897 ft | 527 kts | 44° |
| 2026-05-04 22:01 | 42.51525 | -100.78900 | 34912 ft | 527 kts | 44° |
| 2026-05-04 22:01 | 42.56260 | -100.71290 | 34891 ft | 529 kts | 44° |
| 2026-05-04 22:02 | 42.61003 | -100.63647 | 34894 ft | 529 kts | 44° |
| 2026-05-04 22:02 | 42.65708 | -100.56042 | 34905 ft | 529 kts | 44° |
| 2026-05-04 22:03 | 42.70441 | -100.48374 | 34889 ft | 530 kts | 44° |
| 2026-05-04 22:03 | 42.75173 | -100.40687 | 34891 ft | 530 kts | 44° |
| 2026-05-04 22:04 | 42.79907 | -100.32978 | 34890 ft | 531 kts | 44° |
| 2026-05-04 22:04 | 42.84648 | -100.25238 | 34888 ft | 532 kts | 44° |
| 2026-05-04 22:05 | 42.89384 | -100.17485 | 34895 ft | 532 kts | 44° |
| 2026-05-04 22:05 | 42.94088 | -100.09762 | 34883 ft | 533 kts | 44° |
| 2026-05-04 22:06 | 42.98820 | -100.01974 | 34884 ft | 533 kts | 44° |
| 2026-05-04 22:06 | 43.03447 | -99.94032 | 34884 ft | 537 kts | 48° |
| 2026-05-04 22:07 | 43.07800 | -99.85700 | 34884 ft | 539 kts | 49° |
| 2026-05-04 22:07 | 43.12132 | -99.77328 | 34882 ft | 539 kts | 49° |
| 2026-05-04 22:08 | 43.16514 | -99.68983 | 34881 ft | 540 kts | 48° |
| 2026-05-04 22:08 | 43.20918 | -99.60646 | 34885 ft | 540 kts | 48° |
| 2026-05-04 22:09 | 43.25294 | -99.52356 | 34883 ft | 540 kts | 48° |
| 2026-05-04 22:09 | 43.29699 | -99.43983 | 34892 ft | 542 kts | 48° |
| 2026-05-04 22:10 | 43.34104 | -99.35578 | 34878 ft | 543 kts | 48° |
| 2026-05-04 22:10 | 43.38512 | -99.27143 | 34881 ft | 543 kts | 48° |
| 2026-05-04 22:11 | 43.42910 | -99.18702 | 34882 ft | 543 kts | 48° |
| 2026-05-04 22:11 | 43.47274 | -99.10302 | 34918 ft | 543 kts | 48° |
| 2026-05-04 22:12 | 43.51663 | -99.01833 | 34876 ft | 544 kts | 48° |
| 2026-05-04 22:12 | 43.56050 | -98.93342 | 34884 ft | 544 kts | 48° |
| 2026-05-04 22:13 | 43.60434 | -98.84833 | 34869 ft | 544 kts | 48° |
| 2026-05-04 22:13 | 43.64810 | -98.76313 | 34870 ft | 544 kts | 49° |
| 2026-05-04 22:14 | 43.69183 | -98.67776 | 34873 ft | 544 kts | 49° |
| 2026-05-04 22:14 | 43.73548 | -98.59228 | 34868 ft | 545 kts | 49° |
| 2026-05-04 22:15 | 43.77883 | -98.50715 | 34866 ft | 545 kts | 49° |
| 2026-05-04 22:15 | 43.82245 | -98.42123 | 34866 ft | 545 kts | 49° |
| 2026-05-04 22:16 | 43.86598 | -98.33523 | 34886 ft | 545 kts | 49° |
| 2026-05-04 22:16 | 43.90953 | -98.24897 | 34861 ft | 547 kts | 49° |
| 2026-05-04 22:17 | 43.95313 | -98.16234 | 34864 ft | 548 kts | 49° |
| 2026-05-04 22:17 | 43.99678 | -98.07536 | 34860 ft | 550 kts | 49° |
| 2026-05-04 22:18 | 44.04014 | -97.98867 | 34861 ft | 550 kts | 49° |
| 2026-05-04 22:18 | 44.08374 | -97.90125 | 34855 ft | 550 kts | 49° |
| 2026-05-04 22:19 | 44.12731 | -97.81362 | 34853 ft | 551 kts | 49° |
| 2026-05-04 22:19 | 44.17081 | -97.72588 | 34865 ft | 551 kts | 49° |
| 2026-05-04 22:20 | 44.21436 | -97.63780 | 34847 ft | 553 kts | 49° |
| 2026-05-04 22:20 | 44.25790 | -97.54944 | 34848 ft | 553 kts | 50° |
| 2026-05-04 22:21 | 44.30101 | -97.46164 | 34848 ft | 552 kts | 50° |
| 2026-05-04 22:21 | 44.34437 | -97.37313 | 34850 ft | 552 kts | 50° |
| 2026-05-04 22:22 | 44.38762 | -97.28456 | 34852 ft | 552 kts | 50° |
| 2026-05-04 22:22 | 44.43093 | -97.19561 | 34829 ft | 553 kts | 50° |
| 2026-05-04 22:23 | 44.47420 | -97.10645 | 34826 ft | 554 kts | 50° |
| 2026-05-04 22:23 | 44.51742 | -97.01712 | 34822 ft | 554 kts | 50° |
| 2026-05-04 22:24 | 44.56029 | -96.92822 | 34819 ft | 554 kts | 50° |
| 2026-05-04 22:24 | 44.60340 | -96.83856 | 34825 ft | 554 kts | 50° |
| 2026-05-04 22:25 | 44.64644 | -96.74876 | 34813 ft | 555 kts | 50° |
| 2026-05-04 22:25 | 44.68942 | -96.65882 | 34799 ft | 555 kts | 50° |
| 2026-05-04 22:26 | 44.73237 | -96.56865 | 34799 ft | 555 kts | 50° |
| 2026-05-04 22:26 | 44.77495 | -96.47900 | 34808 ft | 555 kts | 50° |
| 2026-05-04 22:27 | 44.81778 | -96.38852 | 34834 ft | 555 kts | 50° |
| 2026-05-04 22:27 | 44.86059 | -96.29780 | 34807 ft | 557 kts | 50° |
| 2026-05-04 22:28 | 44.90344 | -96.20672 | 34813 ft | 558 kts | 50° |
| 2026-05-04 22:28 | 44.94624 | -96.11543 | 34813 ft | 558 kts | 50° |
| 2026-05-04 22:29 | 44.98896 | -96.02402 | 34886 ft | 558 kts | 51° |
| 2026-05-04 22:29 | 45.01035 | -95.97834 | 35264 ft | 555 kts | 50° |
| 2026-05-04 22:29 | 45.03206 | -95.93453 | 35854 ft | 548 kts | 48° |
| 2026-05-04 22:29 | 45.05453 | -95.89123 | 36376 ft | 545 kts | 47° |
| 2026-05-04 22:30 | 45.07722 | -95.84824 | 36714 ft | 546 kts | 47° |
| 2026-05-04 22:30 | 45.12272 | -95.76172 | 36803 ft | 548 kts | 48° |
| 2026-05-04 22:31 | 45.16774 | -95.67460 | 36790 ft | 548 kts | 48° |
| 2026-05-04 22:31 | 45.21255 | -95.58696 | 36767 ft | 549 kts | 49° |
| 2026-05-04 22:32 | 45.25724 | -95.49916 | 36802 ft | 549 kts | 49° |
| 2026-05-04 22:32 | 45.30168 | -95.41164 | 36761 ft | 551 kts | 49° |
| 2026-05-04 22:33 | 45.34644 | -95.32324 | 36759 ft | 551 kts | 49° |
| 2026-05-04 22:33 | 45.39113 | -95.23470 | 36761 ft | 551 kts | 49° |
| 2026-05-04 22:34 | 45.43578 | -95.14599 | 36763 ft | 551 kts | 49° |
| 2026-05-04 22:34 | 45.48036 | -95.05714 | 36779 ft | 552 kts | 49° |
| 2026-05-04 22:35 | 45.52495 | -94.96799 | 36758 ft | 553 kts | 49° |
| 2026-05-04 22:35 | 45.56924 | -94.87914 | 36759 ft | 553 kts | 49° |
| 2026-05-04 22:36 | 45.61376 | -94.78957 | 36757 ft | 553 kts | 49° |
| 2026-05-04 22:36 | 45.65823 | -94.69980 | 36754 ft | 553 kts | 49° |
| 2026-05-04 22:37 | 45.70262 | -94.60991 | 36748 ft | 553 kts | 49° |
| 2026-05-04 22:37 | 45.74698 | -94.51981 | 36744 ft | 554 kts | 49° |
| 2026-05-04 22:38 | 45.78378 | -94.44485 | 36743 ft | 554 kts | 50° |
| 2026-05-04 22:38 | 45.83517 | -94.33981 | 36750 ft | 554 kts | 50° |
| 2026-05-04 22:39 | 45.87933 | -94.24926 | 36749 ft | 554 kts | 50° |
| 2026-05-04 22:39 | 45.91628 | -94.17327 | 36749 ft | 553 kts | 50° |
| 2026-05-04 22:40 | 45.96018 | -94.08268 | 36737 ft | 552 kts | 50° |
| 2026-05-04 22:40 | 46.00367 | -93.99269 | 36727 ft | 552 kts | 50° |
| 2026-05-04 22:41 | 46.04660 | -93.90094 | 36701 ft | 553 kts | 52° |
| 2026-05-04 22:41 | 46.08858 | -93.80831 | 36698 ft | 552 kts | 52° |
| 2026-05-04 22:42 | 46.13052 | -93.71576 | 36699 ft | 551 kts | 52° |
| 2026-05-04 22:42 | 46.17246 | -93.62347 | 36696 ft | 549 kts | 52° |
| 2026-05-04 22:43 | 46.21433 | -93.53129 | 36697 ft | 549 kts | 52° |
| 2026-05-04 22:43 | 46.25584 | -93.43959 | 36688 ft | 549 kts | 52° |
| 2026-05-04 22:44 | 46.29756 | -93.34712 | 36686 ft | 549 kts | 52° |
| 2026-05-04 22:44 | 46.33919 | -93.25449 | 36693 ft | 548 kts | 52° |
| 2026-05-04 22:45 | 46.38066 | -93.16192 | 36684 ft | 548 kts | 52° |
| 2026-05-04 22:45 | 46.44269 | -93.02290 | 36682 ft | 548 kts | 52° |
| 2026-05-04 22:46 | 46.48397 | -92.92999 | 36681 ft | 548 kts | 53° |
| 2026-05-04 22:46 | 46.52489 | -92.83758 | 36669 ft | 548 kts | 53° |
| 2026-05-04 22:47 | 46.56600 | -92.74444 | 36693 ft | 547 kts | 53° |
| 2026-05-04 22:47 | 46.60690 | -92.65145 | 36663 ft | 546 kts | 53° |
| 2026-05-04 22:48 | 46.64773 | -92.55833 | 36664 ft | 546 kts | 53° |
| 2026-05-04 22:48 | 46.68847 | -92.46510 | 36663 ft | 546 kts | 53° |
| 2026-05-04 22:49 | 46.72915 | -92.37171 | 36665 ft | 546 kts | 53° |
| 2026-05-04 22:49 | 46.76945 | -92.27884 | 36627 ft | 546 kts | 53° |
| 2026-05-04 22:50 | 46.81175 | -92.18716 | 36629 ft | 542 kts | 48° |
| 2026-05-04 22:50 | 46.85829 | -92.10060 | 36626 ft | 541 kts | 47° |
| 2026-05-04 22:51 | 46.90545 | -92.01485 | 36623 ft | 541 kts | 46° |
| 2026-05-04 22:51 | 46.95273 | -91.92899 | 36633 ft | 542 kts | 46° |
| 2026-05-04 22:52 | 46.99980 | -91.84284 | 36614 ft | 540 kts | 47° |
| 2026-05-04 22:52 | 47.04625 | -91.75734 | 36618 ft | 539 kts | 47° |
| 2026-05-04 22:53 | 47.09293 | -91.67119 | 36618 ft | 539 kts | 47° |
| 2026-05-04 22:53 | 47.13960 | -91.58485 | 36601 ft | 540 kts | 47° |
| 2026-05-04 22:54 | 47.18633 | -91.49817 | 36611 ft | 540 kts | 47° |
| 2026-05-04 22:54 | 47.23285 | -91.41162 | 36580 ft | 539 kts | 48° |
| 2026-05-04 22:55 | 47.27917 | -91.32503 | 36584 ft | 538 kts | 48° |
| 2026-05-04 22:55 | 47.32522 | -91.23905 | 36568 ft | 538 kts | 47° |
| 2026-05-04 22:56 | 47.37207 | -91.15307 | 36565 ft | 538 kts | 47° |
| 2026-05-04 22:56 | 47.41822 | -91.06606 | 36558 ft | 537 kts | 49° |
| 2026-05-04 22:57 | 47.46376 | -90.97872 | 36556 ft | 536 kts | 49° |
| 2026-05-04 22:57 | 47.50926 | -90.89139 | 36550 ft | 536 kts | 49° |
| 2026-05-04 22:58 | 47.55490 | -90.80408 | 36532 ft | 536 kts | 49° |
| 2026-05-04 22:58 | 47.60037 | -90.71731 | 36548 ft | 537 kts | 49° |
| 2026-05-04 22:59 | 47.64596 | -90.63003 | 36522 ft | 535 kts | 49° |
| 2026-05-04 22:59 | 47.69138 | -90.54276 | 36523 ft | 534 kts | 49° |
| 2026-05-04 23:00 | 47.73669 | -90.45539 | 36517 ft | 534 kts | 49° |
| 2026-05-04 23:00 | 47.78203 | -90.36769 | 36517 ft | 535 kts | 50° |
| 2026-05-04 23:01 | 47.82731 | -90.27994 | 36507 ft | 534 kts | 50° |
| 2026-05-04 23:01 | 47.87240 | -90.19213 | 36505 ft | 533 kts | 50° |
| 2026-05-04 23:02 | 47.91705 | -90.10482 | 36499 ft | 533 kts | 50° |
| 2026-05-04 23:02 | 47.96195 | -90.01682 | 36497 ft | 533 kts | 50° |
| 2026-05-04 23:03 | 48.00687 | -89.92865 | 36475 ft | 533 kts | 50° |
| 2026-05-04 23:03 | 48.05167 | -89.84036 | 36479 ft | 533 kts | 51° |
| 2026-05-04 23:04 | 48.09633 | -89.75178 | 36480 ft | 533 kts | 51° |
| 2026-05-04 23:04 | 48.14086 | -89.66323 | 36465 ft | 533 kts | 51° |
| 2026-05-04 23:05 | 48.18507 | -89.57512 | 36446 ft | 533 kts | 51° |
| 2026-05-04 23:05 | 48.22957 | -89.48616 | 36452 ft | 533 kts | 51° |
| 2026-05-04 23:06 | 48.27346 | -89.39675 | 36420 ft | 533 kts | 54° |
| 2026-05-04 23:06 | 48.31337 | -89.30289 | 36418 ft | 533 kts | 57° |
| 2026-05-04 23:07 | 48.35221 | -89.20789 | 36432 ft | 533 kts | 56° |
| 2026-05-04 23:07 | 48.39150 | -89.11336 | 36429 ft | 533 kts | 56° |
| 2026-05-04 23:08 | 48.43091 | -89.01961 | 36427 ft | 533 kts | 56° |
| 2026-05-04 23:08 | 48.47056 | -88.92532 | 36424 ft | 532 kts | 56° |
| 2026-05-04 23:09 | 48.51009 | -88.83096 | 36420 ft | 532 kts | 56° |
| 2026-05-04 23:09 | 48.54950 | -88.73647 | 36418 ft | 532 kts | 56° |
| 2026-05-04 23:10 | 48.58884 | -88.64179 | 36410 ft | 533 kts | 56° |
| 2026-05-04 23:10 | 48.62787 | -88.54752 | 36409 ft | 533 kts | 56° |
| 2026-05-04 23:11 | 48.66711 | -88.45242 | 36406 ft | 532 kts | 57° |
| 2026-05-04 23:11 | 48.70617 | -88.35742 | 36403 ft | 531 kts | 57° |
| 2026-05-04 23:12 | 48.74512 | -88.26233 | 36401 ft | 531 kts | 57° |
| 2026-05-04 23:12 | 48.78401 | -88.16708 | 36396 ft | 532 kts | 57° |
| 2026-05-04 23:13 | 48.82287 | -88.07154 | 36385 ft | 532 kts | 57° |
| 2026-05-04 23:13 | 48.86167 | -87.97582 | 36384 ft | 532 kts | 57° |
| 2026-05-04 23:14 | 48.90010 | -87.88065 | 36381 ft | 532 kts | 57° |
| 2026-05-04 23:14 | 48.93874 | -87.78463 | 36378 ft | 532 kts | 57° |
| 2026-05-04 23:15 | 48.97731 | -87.68844 | 36377 ft | 533 kts | 58° |
| 2026-05-04 23:15 | 49.01584 | -87.59201 | 36379 ft | 533 kts | 58° |
| 2026-05-04 23:16 | 49.05428 | -87.49543 | 36390 ft | 533 kts | 58° |
| 2026-05-04 23:16 | 49.09267 | -87.39864 | 36378 ft | 533 kts | 58° |
| 2026-05-04 23:17 | 49.13067 | -87.30248 | 36375 ft | 533 kts | 58° |
| 2026-05-04 23:17 | 49.16889 | -87.20538 | 36375 ft | 533 kts | 58° |
| 2026-05-04 23:18 | 49.20706 | -87.10809 | 36371 ft | 533 kts | 58° |
| 2026-05-04 23:18 | 49.24511 | -87.01074 | 36364 ft | 533 kts | 58° |
| 2026-05-04 23:19 | 49.28310 | -86.91317 | 36361 ft | 533 kts | 58° |
| 2026-05-04 23:19 | 49.32095 | -86.81562 | 36351 ft | 532 kts | 59° |
| 2026-05-04 23:20 | 49.35869 | -86.71797 | 36345 ft | 532 kts | 59° |
| 2026-05-04 23:20 | 49.39638 | -86.62011 | 36337 ft | 532 kts | 59° |
| 2026-05-04 23:21 | 49.43370 | -86.52281 | 36333 ft | 532 kts | 59° |
| 2026-05-04 23:21 | 49.47121 | -86.42468 | 36346 ft | 532 kts | 59° |
| 2026-05-04 23:22 | 49.50862 | -86.32645 | 36317 ft | 532 kts | 59° |
| 2026-05-04 23:22 | 49.54598 | -86.22798 | 36317 ft | 533 kts | 59° |
| 2026-05-04 23:23 | 49.58325 | -86.12936 | 36312 ft | 533 kts | 59° |
| 2026-05-04 23:23 | 49.62043 | -86.03063 | 36312 ft | 533 kts | 59° |
| 2026-05-04 23:24 | 49.65728 | -85.93238 | 36297 ft | 533 kts | 59° |
| 2026-05-04 23:24 | 49.69431 | -85.83327 | 36309 ft | 532 kts | 59° |
| 2026-05-04 23:25 | 49.73114 | -85.73436 | 36298 ft | 531 kts | 60° |
| 2026-05-04 23:25 | 49.76786 | -85.63534 | 36297 ft | 531 kts | 60° |
| 2026-05-04 23:26 | 49.80448 | -85.53622 | 36292 ft | 531 kts | 60° |
| 2026-05-04 23:26 | 49.84077 | -85.43762 | 36280 ft | 531 kts | 60° |
| 2026-05-04 23:27 | 49.87723 | -85.33817 | 36303 ft | 531 kts | 60° |
| 2026-05-04 23:27 | 49.91355 | -85.23871 | 36287 ft | 529 kts | 60° |
| 2026-05-04 23:28 | 49.94991 | -85.13878 | 36287 ft | 528 kts | 60° |
| 2026-05-04 23:28 | 49.98568 | -85.04017 | 36277 ft | 528 kts | 60° |
| 2026-05-04 23:29 | 50.02882 | -84.94806 | 36278 ft | 527 kts | 50° |
| 2026-05-04 23:29 | 50.07596 | -84.86069 | 36273 ft | 527 kts | 49° |
| 2026-05-04 23:30 | 50.12359 | -84.77406 | 36270 ft | 526 kts | 49° |
| 2026-05-04 23:30 | 50.17105 | -84.68733 | 36269 ft | 525 kts | 49° |
| 2026-05-04 23:31 | 50.21833 | -84.60031 | 36261 ft | 525 kts | 49° |
| 2026-05-04 23:31 | 50.26518 | -84.51364 | 36260 ft | 525 kts | 49° |
| 2026-05-04 23:32 | 50.31224 | -84.42630 | 36256 ft | 525 kts | 49° |
| 2026-05-04 23:32 | 50.35918 | -84.33887 | 36257 ft | 524 kts | 49° |
| 2026-05-04 23:33 | 50.40599 | -84.25139 | 36256 ft | 524 kts | 49° |
| 2026-05-04 23:33 | 50.45276 | -84.16372 | 36255 ft | 524 kts | 50° |
| 2026-05-04 23:34 | 50.49946 | -84.07587 | 36261 ft | 524 kts | 50° |
| 2026-05-04 23:34 | 50.54605 | -83.98793 | 36253 ft | 523 kts | 50° |
| 2026-05-04 23:35 | 50.59256 | -83.89984 | 36248 ft | 523 kts | 50° |
| 2026-05-04 23:35 | 50.63901 | -83.81156 | 36252 ft | 524 kts | 50° |
| 2026-05-04 23:36 | 50.68545 | -83.72301 | 36247 ft | 524 kts | 50° |
| 2026-05-04 23:36 | 50.73177 | -83.63438 | 36254 ft | 523 kts | 50° |
| 2026-05-04 23:37 | 50.77802 | -83.54558 | 36249 ft | 523 kts | 50° |
| 2026-05-04 23:37 | 50.82380 | -83.45738 | 36243 ft | 523 kts | 50° |
| 2026-05-04 23:38 | 50.86981 | -83.36843 | 36247 ft | 522 kts | 50° |
| 2026-05-04 23:38 | 50.91577 | -83.27926 | 36247 ft | 522 kts | 50° |
| 2026-05-04 23:39 | 50.96165 | -83.18995 | 36253 ft | 522 kts | 50° |
| 2026-05-04 23:39 | 51.00748 | -83.10043 | 36252 ft | 522 kts | 50° |
| 2026-05-04 23:40 | 51.05324 | -83.01074 | 36253 ft | 522 kts | 51° |
| 2026-05-04 23:40 | 51.09891 | -82.92091 | 36262 ft | 522 kts | 51° |
| 2026-05-04 23:41 | 51.14454 | -82.83086 | 36260 ft | 522 kts | 51° |
| 2026-05-04 23:41 | 51.19010 | -82.74060 | 36264 ft | 522 kts | 51° |
| 2026-05-04 23:42 | 51.23556 | -82.65024 | 36263 ft | 522 kts | 51° |
| 2026-05-04 23:42 | 51.28094 | -82.55971 | 36263 ft | 522 kts | 51° |
| 2026-05-04 23:43 | 51.32626 | -82.46900 | 36265 ft | 522 kts | 51° |
| 2026-05-04 23:43 | 51.37119 | -82.37874 | 36264 ft | 522 kts | 51° |
| 2026-05-04 23:44 | 51.41635 | -82.28770 | 36258 ft | 522 kts | 51° |
| 2026-05-04 23:44 | 51.46140 | -82.19657 | 36264 ft | 521 kts | 51° |
| 2026-05-04 23:45 | 51.50634 | -82.10534 | 36262 ft | 521 kts | 51° |
| 2026-05-04 23:45 | 51.55121 | -82.01391 | 36262 ft | 521 kts | 52° |
| 2026-05-04 23:46 | 51.59599 | -81.92236 | 36261 ft | 520 kts | 52° |
| 2026-05-04 23:46 | 51.64063 | -81.83076 | 36260 ft | 520 kts | 52° |
| 2026-05-04 23:47 | 51.68522 | -81.73893 | 36250 ft | 520 kts | 52° |
| 2026-05-04 23:47 | 51.72975 | -81.64690 | 36254 ft | 520 kts | 52° |
| 2026-05-04 23:48 | 51.77417 | -81.55477 | 36265 ft | 520 kts | 52° |
| 2026-05-04 23:48 | 51.81818 | -81.46318 | 36259 ft | 519 kts | 52° |
| 2026-05-04 23:49 | 51.86240 | -81.37078 | 36265 ft | 519 kts | 52° |
| 2026-05-04 23:49 | 51.90654 | -81.27825 | 36264 ft | 519 kts | 52° |
| 2026-05-04 23:50 | 51.95064 | -81.18546 | 36262 ft | 519 kts | 52° |
| 2026-05-04 23:50 | 51.99467 | -81.09247 | 36269 ft | 520 kts | 53° |
| 2026-05-04 23:51 | 52.03870 | -80.99915 | 36267 ft | 521 kts | 53° |
| 2026-05-04 23:51 | 52.08268 | -80.90559 | 36273 ft | 521 kts | 53° |
| 2026-05-04 23:52 | 52.11913 | -80.82780 | 36273 ft | 521 kts | 53° |
| 2026-05-04 23:52 | 52.17008 | -80.71867 | 36281 ft | 521 kts | 53° |
| 2026-05-04 23:53 | 52.21395 | -80.62433 | 36283 ft | 523 kts | 53° |
| 2026-05-04 23:53 | 52.25069 | -80.54505 | 36273 ft | 523 kts | 53° |
| 2026-05-04 23:54 | 52.29438 | -80.45044 | 36286 ft | 521 kts | 53° |
| 2026-05-04 23:54 | 52.33791 | -80.35578 | 36287 ft | 521 kts | 54° |
| 2026-05-04 23:55 | 52.38108 | -80.26160 | 36291 ft | 521 kts | 54° |
| 2026-05-04 23:56 | 52.44625 | -80.11879 | 36296 ft | 522 kts | 54° |
| 2026-05-04 23:56 | 52.48958 | -80.02338 | 36302 ft | 521 kts | 54° |
| 2026-05-04 23:57 | 52.53216 | -79.92728 | 36311 ft | 520 kts | 56° |
| 2026-05-04 23:57 | 52.57303 | -79.82964 | 36319 ft | 518 kts | 57° |
| 2026-05-04 23:58 | 52.61369 | -79.73184 | 36316 ft | 517 kts | 57° |
| 2026-05-04 23:58 | 52.65443 | -79.63432 | 36318 ft | 517 kts | 57° |
| 2026-05-04 23:59 | 52.69500 | -79.53728 | 36322 ft | 517 kts | 56° |
| 2026-05-04 23:59 | 52.73576 | -79.43949 | 36341 ft | 517 kts | 57° |
| 2026-05-05 00:00 | 52.77641 | -79.34156 | 36342 ft | 517 kts | 57° |
| 2026-05-05 00:00 | 52.81690 | -79.24362 | 36361 ft | 516 kts | 57° |
| 2026-05-05 00:01 | 52.85724 | -79.14563 | 36363 ft | 515 kts | 57° |
| 2026-05-05 00:01 | 52.89748 | -79.04751 | 36363 ft | 515 kts | 57° |
| 2026-05-05 00:02 | 52.93763 | -78.94926 | 36384 ft | 515 kts | 57° |
| 2026-05-05 00:02 | 52.97768 | -78.85084 | 36383 ft | 515 kts | 57° |
| 2026-05-05 00:03 | 53.01767 | -78.75221 | 36412 ft | 514 kts | 57° |
| 2026-05-05 00:03 | 53.05739 | -78.65389 | 36410 ft | 511 kts | 57° |
| 2026-05-05 00:04 | 53.09688 | -78.55566 | 36412 ft | 510 kts | 57° |
| 2026-05-05 00:04 | 53.13603 | -78.45798 | 36429 ft | 510 kts | 57° |
| 2026-05-05 00:05 | 53.17530 | -78.35963 | 36440 ft | 510 kts | 58° |
| 2026-05-05 00:05 | 53.21439 | -78.26136 | 36456 ft | 507 kts | 58° |
| 2026-05-05 00:06 | 53.25326 | -78.16322 | 36456 ft | 506 kts | 58° |
| 2026-05-05 00:06 | 53.29207 | -78.06486 | 36461 ft | 507 kts | 58° |
| 2026-05-05 00:07 | 53.33084 | -77.96619 | 36480 ft | 508 kts | 58° |
| 2026-05-05 00:07 | 53.36953 | -77.86733 | 36481 ft | 507 kts | 58° |
| 2026-05-05 00:08 | 53.40806 | -77.76840 | 36483 ft | 507 kts | 58° |
| 2026-05-05 00:08 | 53.44650 | -77.66944 | 36482 ft | 506 kts | 58° |
| 2026-05-05 00:09 | 53.48458 | -77.57105 | 36484 ft | 506 kts | 59° |
| 2026-05-05 00:09 | 53.52288 | -77.47171 | 36482 ft | 506 kts | 58° |
| 2026-05-05 00:10 | 53.56105 | -77.37225 | 36492 ft | 506 kts | 58° |
| 2026-05-05 00:10 | 53.59912 | -77.27267 | 36506 ft | 505 kts | 58° |
| 2026-05-05 00:11 | 53.63701 | -77.17319 | 36518 ft | 504 kts | 59° |
| 2026-05-05 00:11 | 53.67481 | -77.07354 | 36537 ft | 504 kts | 59° |
| 2026-05-05 00:12 | 53.71250 | -76.97376 | 36539 ft | 504 kts | 59° |
| 2026-05-05 00:12 | 53.75012 | -76.87379 | 36548 ft | 504 kts | 59° |
| 2026-05-05 00:13 | 53.78763 | -76.77372 | 36547 ft | 504 kts | 59° |
| 2026-05-05 00:13 | 53.82509 | -76.67334 | 36559 ft | 504 kts | 59° |
| 2026-05-05 00:14 | 53.86219 | -76.57355 | 36561 ft | 504 kts | 59° |
| 2026-05-05 00:14 | 53.89948 | -76.47287 | 36561 ft | 504 kts | 59° |
| 2026-05-05 00:15 | 53.93666 | -76.37201 | 36570 ft | 504 kts | 59° |
| 2026-05-05 00:15 | 53.97376 | -76.27098 | 36575 ft | 504 kts | 59° |
| 2026-05-05 00:16 | 54.01074 | -76.16991 | 36579 ft | 503 kts | 59° |
| 2026-05-05 00:16 | 54.04757 | -76.06880 | 36586 ft | 503 kts | 60° |
| 2026-05-05 00:17 | 54.08434 | -75.96745 | 36586 ft | 503 kts | 60° |
| 2026-05-05 00:17 | 54.12102 | -75.86598 | 36597 ft | 503 kts | 59° |
| 2026-05-05 00:18 | 54.15736 | -75.76499 | 36602 ft | 503 kts | 60° |
| 2026-05-05 00:18 | 54.19385 | -75.66315 | 36600 ft | 502 kts | 60° |
| 2026-05-05 00:19 | 54.23020 | -75.56130 | 36611 ft | 502 kts | 60° |
| 2026-05-05 00:19 | 54.26646 | -75.45930 | 36610 ft | 502 kts | 60° |
| 2026-05-05 00:20 | 54.30260 | -75.35720 | 36623 ft | 501 kts | 60° |
| 2026-05-05 00:20 | 54.33860 | -75.25508 | 36623 ft | 501 kts | 60° |
| 2026-05-05 00:21 | 54.37450 | -75.15283 | 36625 ft | 501 kts | 60° |
| 2026-05-05 00:21 | 54.41033 | -75.05033 | 36631 ft | 500 kts | 60° |
| 2026-05-05 00:22 | 54.44603 | -74.94780 | 36633 ft | 500 kts | 60° |
| 2026-05-05 00:22 | 54.48141 | -74.84576 | 36634 ft | 500 kts | 60° |
| 2026-05-05 00:23 | 54.51694 | -74.74284 | 36644 ft | 500 kts | 60° |
| 2026-05-05 00:23 | 54.55239 | -74.63972 | 36640 ft | 500 kts | 60° |
| 2026-05-05 00:24 | 54.58777 | -74.53639 | 36657 ft | 500 kts | 61° |
| 2026-05-05 00:24 | 54.62302 | -74.43299 | 36656 ft | 500 kts | 61° |
| 2026-05-05 00:25 | 54.65821 | -74.32933 | 36653 ft | 500 kts | 61° |
| 2026-05-05 00:25 | 54.69327 | -74.22560 | 36665 ft | 500 kts | 61° |
| 2026-05-05 00:26 | 54.72829 | -74.12157 | 36650 ft | 500 kts | 61° |
| 2026-05-05 00:26 | 54.76315 | -74.01756 | 36667 ft | 499 kts | 61° |
| 2026-05-05 00:27 | 54.79791 | -73.91342 | 36667 ft | 499 kts | 61° |
| 2026-05-05 00:27 | 54.83234 | -73.80980 | 36669 ft | 499 kts | 62° |
| 2026-05-05 00:28 | 54.86691 | -73.70532 | 36668 ft | 499 kts | 62° |
| 2026-05-05 00:28 | 54.90141 | -73.60061 | 36668 ft | 499 kts | 62° |
| 2026-05-05 00:29 | 54.93576 | -73.49587 | 36668 ft | 499 kts | 62° |
| 2026-05-05 00:29 | 54.97008 | -73.39082 | 36664 ft | 499 kts | 62° |
| 2026-05-05 00:30 | 55.00427 | -73.28567 | 36674 ft | 499 kts | 62° |
| 2026-05-05 00:30 | 55.03835 | -73.18044 | 36670 ft | 499 kts | 62° |
| 2026-05-05 00:31 | 55.07236 | -73.07493 | 36672 ft | 499 kts | 62° |
| 2026-05-05 00:31 | 55.10602 | -72.97006 | 36676 ft | 499 kts | 62° |
| 2026-05-05 00:32 | 55.13981 | -72.86432 | 36679 ft | 498 kts | 62° |
| 2026-05-05 00:32 | 55.17349 | -72.75846 | 36675 ft | 498 kts | 62° |
| 2026-05-05 00:33 | 55.20707 | -72.65243 | 36680 ft | 498 kts | 63° |
| 2026-05-05 00:33 | 55.24059 | -72.54616 | 36685 ft | 498 kts | 63° |
| 2026-05-05 00:34 | 55.27398 | -72.43979 | 36687 ft | 498 kts | 63° |
| 2026-05-05 00:34 | 55.30728 | -72.33325 | 36699 ft | 498 kts | 63° |
| 2026-05-05 00:35 | 55.34049 | -72.22655 | 36705 ft | 497 kts | 63° |
| 2026-05-05 00:35 | 55.37334 | -72.12048 | 36702 ft | 497 kts | 63° |
| 2026-05-05 00:36 | 55.40632 | -72.01355 | 36707 ft | 497 kts | 63° |
| 2026-05-05 00:36 | 55.43920 | -71.90645 | 36703 ft | 497 kts | 63° |
| 2026-05-05 00:37 | 55.47197 | -71.79922 | 36703 ft | 497 kts | 63° |
| 2026-05-05 00:37 | 55.50463 | -71.69188 | 36703 ft | 496 kts | 64° |
| 2026-05-05 00:38 | 55.53716 | -71.58448 | 36702 ft | 496 kts | 64° |
| 2026-05-05 00:38 | 55.56959 | -71.47690 | 36708 ft | 496 kts | 64° |
| 2026-05-05 00:39 | 55.60174 | -71.36979 | 36710 ft | 496 kts | 64° |
| 2026-05-05 00:39 | 55.63397 | -71.26191 | 36711 ft | 496 kts | 64° |
| 2026-05-05 00:40 | 55.66611 | -71.15384 | 36708 ft | 495 kts | 64° |
| 2026-05-05 00:40 | 55.69803 | -71.04605 | 36714 ft | 493 kts | 64° |
| 2026-05-05 00:41 | 55.72981 | -70.93818 | 36712 ft | 493 kts | 64° |
| 2026-05-05 00:41 | 55.76148 | -70.83021 | 36714 ft | 493 kts | 65° |
| 2026-05-05 00:42 | 55.79308 | -70.72196 | 36717 ft | 493 kts | 65° |
| 2026-05-05 00:42 | 55.82457 | -70.61360 | 36716 ft | 493 kts | 65° |
| 2026-05-05 00:43 | 55.85574 | -70.50588 | 36714 ft | 493 kts | 65° |
| 2026-05-05 00:43 | 55.88701 | -70.39729 | 36715 ft | 492 kts | 65° |
| 2026-05-05 00:44 | 55.91813 | -70.28871 | 36722 ft | 492 kts | 65° |
| 2026-05-05 00:44 | 55.94912 | -70.18004 | 36719 ft | 492 kts | 65° |
| 2026-05-05 00:45 | 55.98001 | -70.07125 | 36714 ft | 491 kts | 65° |
| 2026-05-05 00:45 | 56.01109 | -69.96243 | 36710 ft | 492 kts | 64° |
| 2026-05-05 00:46 | 56.04638 | -69.85737 | 36713 ft | 493 kts | 60° |
| 2026-05-05 00:46 | 56.08275 | -69.75437 | 36714 ft | 493 kts | 61° |
| 2026-05-05 00:47 | 56.11871 | -69.64994 | 36707 ft | 492 kts | 62° |
| 2026-05-05 00:47 | 56.15403 | -69.54509 | 36713 ft | 490 kts | 62° |
| 2026-05-05 00:48 | 56.18903 | -69.44013 | 36713 ft | 490 kts | 62° |
| 2026-05-05 00:48 | 56.22393 | -69.33507 | 36715 ft | 490 kts | 62° |
| 2026-05-05 00:49 | 56.25874 | -69.22988 | 36716 ft | 489 kts | 62° |
| 2026-05-05 00:49 | 56.29345 | -69.12460 | 36717 ft | 489 kts | 63° |
| 2026-05-05 00:50 | 56.32809 | -69.01908 | 36712 ft | 489 kts | 63° |
| 2026-05-05 00:50 | 56.36240 | -68.91409 | 36717 ft | 489 kts | 63° |
| 2026-05-05 00:51 | 56.39683 | -68.80827 | 36715 ft | 489 kts | 63° |
| 2026-05-05 00:51 | 56.43106 | -68.70263 | 36716 ft | 486 kts | 63° |
| 2026-05-05 00:52 | 56.46511 | -68.59705 | 36717 ft | 486 kts | 63° |
| 2026-05-05 00:52 | 56.49907 | -68.49125 | 36715 ft | 486 kts | 63° |
| 2026-05-05 00:53 | 56.53294 | -68.38529 | 36715 ft | 486 kts | 63° |
| 2026-05-05 00:53 | 56.56670 | -68.27922 | 36717 ft | 486 kts | 63° |
| 2026-05-05 00:54 | 56.60012 | -68.17373 | 36715 ft | 485 kts | 64° |
| 2026-05-05 00:54 | 56.63367 | -68.06739 | 36719 ft | 485 kts | 64° |
| 2026-05-05 00:55 | 56.66712 | -67.96087 | 36714 ft | 485 kts | 64° |
| 2026-05-05 00:55 | 56.70051 | -67.85403 | 36719 ft | 486 kts | 64° |
| 2026-05-05 00:56 | 56.73386 | -67.74688 | 36705 ft | 486 kts | 64° |
| 2026-05-05 00:56 | 56.76712 | -67.63951 | 36704 ft | 486 kts | 64° |
| 2026-05-05 00:57 | 56.80026 | -67.53202 | 36702 ft | 486 kts | 64° |
| 2026-05-05 00:57 | 56.82773 | -67.44258 | 36690 ft | 486 kts | 64° |
| 2026-05-05 00:58 | 56.86073 | -67.33466 | 36691 ft | 486 kts | 64° |
| 2026-05-05 00:58 | 56.89892 | -67.20914 | 36691 ft | 486 kts | 64° |
| 2026-05-05 00:59 | 56.92639 | -67.11848 | 36668 ft | 486 kts | 65° |
| 2026-05-05 00:59 | 56.95898 | -67.01051 | 36671 ft | 482 kts | 65° |
| 2026-05-05 01:00 | 56.99116 | -66.90334 | 36672 ft | 479 kts | 65° |
| 2026-05-05 01:00 | 57.02319 | -66.79606 | 36669 ft | 479 kts | 66° |
| 2026-05-05 01:01 | 57.05511 | -66.68872 | 36655 ft | 479 kts | 66° |
| 2026-05-05 01:01 | 57.08695 | -66.58120 | 36649 ft | 479 kts | 66° |
| 2026-05-05 01:02 | 57.11848 | -66.47426 | 36647 ft | 477 kts | 66° |
| 2026-05-05 01:02 | 57.14996 | -66.36704 | 36630 ft | 475 kts | 66° |
| 2026-05-05 01:03 | 57.18120 | -66.26002 | 36632 ft | 474 kts | 67° |
| 2026-05-05 01:03 | 57.21234 | -66.15288 | 36631 ft | 472 kts | 66° |
| 2026-05-05 01:04 | 57.24316 | -66.04643 | 36632 ft | 469 kts | 66° |
| 2026-05-05 01:04 | 57.28906 | -65.88688 | 36604 ft | 469 kts | 67° |
| 2026-05-05 01:05 | 57.31958 | -65.78015 | 36617 ft | 470 kts | 67° |
| 2026-05-05 01:05 | 57.35007 | -65.67306 | 36617 ft | 470 kts | 67° |
| 2026-05-05 01:06 | 57.38048 | -65.56578 | 36608 ft | 470 kts | 67° |
| 2026-05-05 01:06 | 57.41077 | -65.45843 | 36604 ft | 470 kts | 67° |
| 2026-05-05 01:07 | 57.44097 | -65.35087 | 36603 ft | 470 kts | 67° |
| 2026-05-05 01:07 | 57.47111 | -65.24303 | 36592 ft | 472 kts | 67° |
| 2026-05-05 01:08 | 57.50135 | -65.13428 | 36590 ft | 474 kts | 67° |
| 2026-05-05 01:08 | 57.53157 | -65.02512 | 36589 ft | 475 kts | 68° |
| 2026-05-05 01:09 | 57.56170 | -64.91580 | 36591 ft | 475 kts | 68° |
| 2026-05-05 01:09 | 57.59153 | -64.80699 | 36588 ft | 474 kts | 68° |
| 2026-05-05 01:10 | 57.62147 | -64.69732 | 36563 ft | 474 kts | 68° |
| 2026-05-05 01:10 | 57.65127 | -64.58765 | 36591 ft | 474 kts | 68° |
| 2026-05-05 01:11 | 57.68096 | -64.47779 | 36581 ft | 473 kts | 68° |
| 2026-05-05 01:11 | 57.71053 | -64.36782 | 36583 ft | 473 kts | 69° |
| 2026-05-05 01:12 | 57.74000 | -64.25771 | 36587 ft | 473 kts | 69° |
| 2026-05-05 01:12 | 57.76937 | -64.14743 | 36580 ft | 473 kts | 69° |
| 2026-05-05 01:13 | 57.79866 | -64.03700 | 36574 ft | 473 kts | 69° |
| 2026-05-05 01:13 | 57.82779 | -63.92658 | 36585 ft | 472 kts | 69° |
| 2026-05-05 01:14 | 57.85680 | -63.81604 | 36586 ft | 472 kts | 69° |
| 2026-05-05 01:14 | 57.88551 | -63.70610 | 36585 ft | 472 kts | 69° |
| 2026-05-05 01:15 | 57.91428 | -63.59532 | 36593 ft | 472 kts | 69° |
| 2026-05-05 01:15 | 57.94299 | -63.48435 | 36593 ft | 472 kts | 70° |
| 2026-05-05 01:16 | 57.97160 | -63.37317 | 36604 ft | 471 kts | 70° |
| 2026-05-05 01:16 | 57.99995 | -63.26253 | 36588 ft | 468 kts | 70° |
| 2026-05-05 01:17 | 58.02539 | -63.15045 | 36610 ft | 463 kts | 75° |
| 2026-05-05 01:17 | 58.04791 | -63.03654 | 36613 ft | 463 kts | 75° |
| 2026-05-05 01:18 | 58.07059 | -62.92272 | 36609 ft | 463 kts | 75° |
| 2026-05-05 01:18 | 58.09357 | -62.80984 | 36606 ft | 463 kts | 75° |
| 2026-05-05 01:19 | 58.11686 | -62.69611 | 36600 ft | 465 kts | 75° |
| 2026-05-05 01:19 | 58.14015 | -62.58178 | 36607 ft | 466 kts | 75° |
| 2026-05-05 01:20 | 58.16336 | -62.46708 | 36606 ft | 466 kts | 75° |
| 2026-05-05 01:20 | 58.18643 | -62.35251 | 36606 ft | 465 kts | 75° |
| 2026-05-05 01:21 | 58.20936 | -62.23786 | 36595 ft | 465 kts | 75° |
| 2026-05-05 01:21 | 58.23217 | -62.12308 | 36595 ft | 465 kts | 75° |
| 2026-05-05 01:22 | 58.25488 | -62.00819 | 36581 ft | 465 kts | 75° |
| 2026-05-05 01:22 | 58.27757 | -61.89265 | 36581 ft | 468 kts | 75° |
| 2026-05-05 01:23 | 58.30022 | -61.77674 | 36578 ft | 468 kts | 75° |
| 2026-05-05 01:23 | 58.32277 | -61.66069 | 36578 ft | 468 kts | 75° |
| 2026-05-05 01:24 | 58.34521 | -61.54446 | 36563 ft | 467 kts | 75° |
| 2026-05-05 01:24 | 58.36751 | -61.42825 | 36565 ft | 467 kts | 75° |
| 2026-05-05 01:25 | 58.38955 | -61.31269 | 36565 ft | 467 kts | 76° |
| 2026-05-05 01:25 | 58.41162 | -61.19627 | 36548 ft | 467 kts | 76° |
| 2026-05-05 01:26 | 58.43359 | -61.07970 | 36545 ft | 467 kts | 76° |
| 2026-05-05 01:26 | 58.45546 | -60.96293 | 36545 ft | 467 kts | 76° |
| 2026-05-05 01:27 | 58.47721 | -60.84611 | 36534 ft | 467 kts | 76° |
| 2026-05-05 01:27 | 58.49885 | -60.72917 | 36534 ft | 467 kts | 76° |
| 2026-05-05 01:28 | 58.52037 | -60.61214 | 36528 ft | 466 kts | 76° |
| 2026-05-05 01:28 | 58.54163 | -60.49586 | 36529 ft | 466 kts | 76° |
| 2026-05-05 01:29 | 58.56292 | -60.37865 | 36528 ft | 466 kts | 76° |
| 2026-05-05 01:29 | 58.58410 | -60.26130 | 36534 ft | 466 kts | 76° |
| 2026-05-05 01:30 | 58.60516 | -60.14386 | 36535 ft | 466 kts | 76° |
| 2026-05-05 01:30 | 58.62613 | -60.02627 | 36522 ft | 466 kts | 77° |
| 2026-05-05 01:31 | 58.64697 | -59.90860 | 36528 ft | 466 kts | 77° |
| 2026-05-05 01:31 | 58.66757 | -59.79154 | 36520 ft | 466 kts | 77° |
| 2026-05-05 01:32 | 58.68820 | -59.67360 | 36530 ft | 465 kts | 77° |
| 2026-05-05 01:32 | 58.70867 | -59.55583 | 36531 ft | 464 kts | 77° |
| 2026-05-05 01:33 | 58.72901 | -59.43799 | 36531 ft | 464 kts | 77° |
| 2026-05-05 01:33 | 58.74924 | -59.32008 | 36535 ft | 464 kts | 77° |
| 2026-05-05 01:34 | 58.76935 | -59.20204 | 36535 ft | 464 kts | 77° |
| 2026-05-05 01:34 | 58.78923 | -59.08467 | 36516 ft | 464 kts | 77° |
| 2026-05-05 01:35 | 58.80916 | -58.96613 | 36541 ft | 465 kts | 77° |
| 2026-05-05 01:35 | 58.82901 | -58.84733 | 36536 ft | 465 kts | 78° |
| 2026-05-05 01:36 | 58.84875 | -58.72847 | 36547 ft | 464 kts | 78° |
| 2026-05-05 01:36 | 58.86834 | -58.60969 | 36545 ft | 464 kts | 78° |
| 2026-05-05 01:37 | 58.88781 | -58.49087 | 36551 ft | 464 kts | 78° |
| 2026-05-05 01:37 | 58.90715 | -58.37194 | 36551 ft | 464 kts | 78° |
| 2026-05-05 01:38 | 58.92639 | -58.25281 | 36552 ft | 465 kts | 78° |
| 2026-05-05 01:38 | 58.94546 | -58.13398 | 36560 ft | 465 kts | 78° |
| 2026-05-05 01:39 | 58.96456 | -58.01426 | 36556 ft | 465 kts | 78° |
| 2026-05-05 01:39 | 58.98384 | -57.89451 | 36568 ft | 465 kts | 78° |
| 2026-05-05 01:40 | 59.00346 | -57.77490 | 36560 ft | 466 kts | 78° |
| 2026-05-05 01:40 | 59.02297 | -57.65509 | 36562 ft | 466 kts | 78° |
| 2026-05-05 01:41 | 59.04218 | -57.53583 | 36579 ft | 467 kts | 78° |
| 2026-05-05 01:41 | 59.06143 | -57.41521 | 36574 ft | 468 kts | 78° |
| 2026-05-05 01:42 | 59.08058 | -57.29439 | 36587 ft | 468 kts | 78° |
| 2026-05-05 01:42 | 59.09962 | -57.17350 | 36588 ft | 468 kts | 78° |
| 2026-05-05 01:43 | 59.11854 | -57.05247 | 36583 ft | 467 kts | 78° |
| 2026-05-05 01:43 | 59.13734 | -56.93137 | 36598 ft | 467 kts | 78° |
| 2026-05-05 01:44 | 59.15604 | -56.81006 | 36567 ft | 467 kts | 78° |
| 2026-05-05 01:44 | 59.17454 | -56.68908 | 36599 ft | 470 kts | 78° |
| 2026-05-05 01:45 | 59.19312 | -56.56684 | 36605 ft | 470 kts | 78° |
| 2026-05-05 01:45 | 59.21160 | -56.44434 | 36606 ft | 470 kts | 78° |
| 2026-05-05 01:46 | 59.22996 | -56.32178 | 36615 ft | 470 kts | 78° |
| 2026-05-05 01:46 | 59.24819 | -56.19909 | 36618 ft | 470 kts | 78° |
| 2026-05-05 01:47 | 59.26620 | -56.07707 | 36615 ft | 470 kts | 79° |
| 2026-05-05 01:47 | 59.28421 | -55.95400 | 36628 ft | 472 kts | 78° |
| 2026-05-05 01:48 | 59.30217 | -55.83041 | 36618 ft | 472 kts | 78° |
| 2026-05-05 01:48 | 59.32001 | -55.70673 | 36636 ft | 472 kts | 78° |
| 2026-05-05 01:49 | 59.33772 | -55.58303 | 36633 ft | 472 kts | 79° |
| 2026-05-05 01:49 | 59.35532 | -55.45918 | 36633 ft | 472 kts | 79° |
| 2026-05-05 01:50 | 59.37278 | -55.33527 | 36650 ft | 472 kts | 79° |
| 2026-05-05 01:50 | 59.39003 | -55.21194 | 36650 ft | 472 kts | 79° |
| 2026-05-05 01:51 | 59.40727 | -55.08763 | 36664 ft | 472 kts | 79° |
| 2026-05-05 01:51 | 59.42440 | -54.96319 | 36661 ft | 472 kts | 79° |
| 2026-05-05 01:52 | 59.44142 | -54.83859 | 36661 ft | 472 kts | 79° |
| 2026-05-05 01:52 | 59.45832 | -54.71387 | 36678 ft | 472 kts | 79° |
| 2026-05-05 01:53 | 59.47510 | -54.58904 | 36675 ft | 472 kts | 79° |
| 2026-05-05 01:53 | 59.49163 | -54.46508 | 36688 ft | 472 kts | 79° |
| 2026-05-05 01:54 | 59.50821 | -54.33965 | 36690 ft | 474 kts | 79° |
| 2026-05-05 01:54 | 59.52471 | -54.21389 | 36694 ft | 474 kts | 79° |
| 2026-05-05 01:55 | 59.54108 | -54.08811 | 36707 ft | 474 kts | 79° |
| 2026-05-05 01:55 | 59.55732 | -53.96221 | 36706 ft | 474 kts | 80° |
| 2026-05-05 01:56 | 59.57343 | -53.83623 | 36724 ft | 474 kts | 80° |
| 2026-05-05 01:56 | 59.58943 | -53.71010 | 36725 ft | 474 kts | 80° |
| 2026-05-05 01:57 | 59.60521 | -53.58459 | 36728 ft | 474 kts | 81° |
| 2026-05-05 01:57 | 59.62098 | -53.45808 | 36733 ft | 474 kts | 80° |
| 2026-05-05 01:58 | 59.63662 | -53.33151 | 36741 ft | 474 kts | 81° |
| 2026-05-05 01:58 | 59.65215 | -53.20478 | 36741 ft | 474 kts | 81° |
| 2026-05-05 01:59 | 59.66754 | -53.07807 | 36727 ft | 474 kts | 81° |
| 2026-05-05 01:59 | 59.68270 | -52.95208 | 36731 ft | 474 kts | 80° |
| 2026-05-05 02:00 | 59.69787 | -52.82502 | 36746 ft | 474 kts | 81° |
| 2026-05-05 02:00 | 59.71291 | -52.69772 | 36751 ft | 475 kts | 81° |
| 2026-05-05 02:01 | 59.72784 | -52.57004 | 36764 ft | 476 kts | 81° |
| 2026-05-05 02:01 | 59.74267 | -52.44220 | 36767 ft | 476 kts | 81° |
| 2026-05-05 02:02 | 59.75742 | -52.31425 | 36766 ft | 476 kts | 81° |
| 2026-05-05 02:02 | 59.77189 | -52.18712 | 36782 ft | 476 kts | 82° |
| 2026-05-05 02:03 | 59.78635 | -52.05890 | 36790 ft | 477 kts | 81° |
| 2026-05-05 02:03 | 59.80071 | -51.93036 | 36806 ft | 477 kts | 81° |
| 2026-05-05 02:04 | 59.81494 | -51.80163 | 36808 ft | 477 kts | 82° |
| 2026-05-05 02:04 | 59.82910 | -51.67270 | 36805 ft | 478 kts | 82° |
| 2026-05-05 02:05 | 59.84316 | -51.54336 | 36824 ft | 479 kts | 81° |
| 2026-05-05 02:05 | 59.85710 | -51.41381 | 36821 ft | 479 kts | 81° |
| 2026-05-05 02:06 | 59.87082 | -51.28501 | 36851 ft | 480 kts | 81° |
| 2026-05-05 02:06 | 59.88455 | -51.15463 | 36852 ft | 482 kts | 83° |
| 2026-05-05 02:07 | 59.89819 | -51.02399 | 36851 ft | 482 kts | 82° |
| 2026-05-05 02:07 | 59.91166 | -50.89341 | 36870 ft | 481 kts | 82° |
| 2026-05-05 02:08 | 59.92275 | -50.78476 | 36869 ft | 481 kts | 83° |
| 2026-05-05 02:08 | 59.93599 | -50.65394 | 36873 ft | 482 kts | 82° |
| 2026-05-05 02:09 | 59.94915 | -50.52263 | 36867 ft | 483 kts | 83° |
| 2026-05-05 02:09 | 59.96433 | -50.36946 | 36903 ft | 485 kts | 83° |
| 2026-05-05 02:10 | 59.97518 | -50.25890 | 36903 ft | 485 kts | 83° |
| 2026-05-05 02:10 | 59.98800 | -50.12671 | 36903 ft | 485 kts | 83° |
| 2026-05-05 02:11 | 60.00059 | -49.99518 | 37397 ft | 485 kts | 83° |
| 2026-05-05 02:11 | 60.00677 | -49.92908 | 37927 ft | 483 kts | 83° |
| 2026-05-05 02:11 | 60.01263 | -49.86308 | 38399 ft | 481 kts | 83° |
| 2026-05-05 02:12 | 60.01830 | -49.79722 | 38773 ft | 481 kts | 84° |
| 2026-05-05 02:12 | 60.02952 | -49.66539 | 38940 ft | 481 kts | 83° |
| 2026-05-05 02:13 | 60.04082 | -49.53236 | 38942 ft | 487 kts | 82° |
| 2026-05-05 02:13 | 60.05210 | -49.39849 | 38945 ft | 488 kts | 82° |
| 2026-05-05 02:14 | 60.06325 | -49.26549 | 38962 ft | 488 kts | 83° |
| 2026-05-05 02:14 | 60.07432 | -49.13154 | 38961 ft | 487 kts | 83° |
| 2026-05-05 02:15 | 60.08521 | -48.99755 | 38983 ft | 488 kts | 83° |
| 2026-05-05 02:15 | 60.09599 | -48.86338 | 38976 ft | 488 kts | 83° |
| 2026-05-05 02:16 | 60.10673 | -48.72823 | 38984 ft | 493 kts | 83° |
| 2026-05-05 02:16 | 60.11736 | -48.59228 | 38986 ft | 494 kts | 83° |
| 2026-05-05 02:17 | 60.12781 | -48.45704 | 39003 ft | 494 kts | 83° |
| 2026-05-05 02:17 | 60.13816 | -48.32105 | 39020 ft | 493 kts | 83° |
| 2026-05-05 02:18 | 60.14837 | -48.18482 | 39020 ft | 493 kts | 83° |
| 2026-05-05 02:18 | 60.15844 | -48.04863 | 39034 ft | 493 kts | 83° |
| 2026-05-05 02:19 | 60.16839 | -47.91186 | 39041 ft | 498 kts | 83° |
| 2026-05-05 02:19 | 60.17823 | -47.77491 | 39041 ft | 499 kts | 83° |
| 2026-05-05 02:20 | 60.18801 | -47.63677 | 39057 ft | 500 kts | 83° |
| 2026-05-05 02:20 | 60.19765 | -47.49854 | 39054 ft | 499 kts | 83° |
| 2026-05-05 02:21 | 60.20714 | -47.36025 | 39071 ft | 500 kts | 83° |
| 2026-05-05 02:21 | 60.21646 | -47.22191 | 39070 ft | 499 kts | 83° |
| 2026-05-05 02:22 | 60.22562 | -47.08357 | 39072 ft | 499 kts | 83° |
| 2026-05-05 02:22 | 60.23461 | -46.94607 | 39081 ft | 500 kts | 83° |
| 2026-05-05 02:23 | 60.24352 | -46.80751 | 39081 ft | 499 kts | 83° |
| 2026-05-05 02:23 | 60.25228 | -46.66882 | 39086 ft | 499 kts | 83° |
| 2026-05-05 02:24 | 60.26089 | -46.53010 | 39087 ft | 499 kts | 83° |
| 2026-05-05 02:24 | 60.26937 | -46.39114 | 39089 ft | 501 kts | 83° |
| 2026-05-05 02:25 | 60.27773 | -46.25161 | 39098 ft | 502 kts | 83° |
| 2026-05-05 02:25 | 60.28596 | -46.11174 | 39097 ft | 503 kts | 83° |
| 2026-05-05 02:26 | 60.29401 | -45.97260 | 39102 ft | 503 kts | 83° |
| 2026-05-05 02:26 | 60.30195 | -45.83255 | 39106 ft | 503 kts | 83° |
| 2026-05-05 02:27 | 60.30974 | -45.69248 | 39104 ft | 503 kts | 83° |
| 2026-05-05 02:27 | 60.31738 | -45.55234 | 39110 ft | 503 kts | 83° |
| 2026-05-05 02:28 | 60.32488 | -45.41215 | 39116 ft | 503 kts | 83° |
| 2026-05-05 02:28 | 60.33222 | -45.27191 | 39128 ft | 502 kts | 84° |
| 2026-05-05 02:29 | 60.33938 | -45.13251 | 39144 ft | 502 kts | 84° |
| 2026-05-05 02:29 | 60.34644 | -44.99215 | 39133 ft | 502 kts | 84° |
| 2026-05-05 02:30 | 60.35334 | -44.85178 | 39137 ft | 502 kts | 84° |
| 2026-05-05 02:30 | 60.36010 | -44.71131 | 39138 ft | 502 kts | 84° |
| 2026-05-05 02:31 | 60.36671 | -44.57051 | 39153 ft | 505 kts | 84° |
| 2026-05-05 02:31 | 60.37322 | -44.42885 | 39181 ft | 507 kts | 84° |
| 2026-05-05 02:32 | 60.37958 | -44.28704 | 39209 ft | 507 kts | 84° |
| 2026-05-05 02:32 | 60.38579 | -44.14526 | 39207 ft | 506 kts | 84° |
| 2026-05-05 02:33 | 60.39182 | -44.00423 | 39239 ft | 507 kts | 84° |
| 2026-05-05 02:33 | 60.39772 | -43.86230 | 39265 ft | 507 kts | 84° |
| 2026-05-05 02:34 | 60.40348 | -43.72018 | 39266 ft | 508 kts | 84° |
| 2026-05-05 02:34 | 60.40913 | -43.57737 | 39298 ft | 510 kts | 84° |
| 2026-05-05 02:35 | 60.41462 | -43.43426 | 39297 ft | 510 kts | 84° |
| 2026-05-05 02:35 | 60.41997 | -43.29112 | 39317 ft | 510 kts | 85° |
| 2026-05-05 02:36 | 60.42515 | -43.14811 | 39312 ft | 510 kts | 85° |
| 2026-05-05 02:36 | 60.43013 | -43.00604 | 39311 ft | 509 kts | 85° |
| 2026-05-05 02:37 | 60.43500 | -42.86294 | 39315 ft | 510 kts | 84° |
| 2026-05-05 02:37 | 60.43974 | -42.71933 | 39314 ft | 511 kts | 85° |
| 2026-05-05 02:38 | 60.44433 | -42.57548 | 39314 ft | 512 kts | 85° |
| 2026-05-05 02:38 | 60.44876 | -42.43171 | 39314 ft | 511 kts | 85° |
| 2026-05-05 02:39 | 60.45303 | -42.28794 | 39306 ft | 511 kts | 85° |
| 2026-05-05 02:39 | 60.45715 | -42.14404 | 39306 ft | 511 kts | 85° |
| 2026-05-05 02:40 | 60.46109 | -42.00116 | 39310 ft | 512 kts | 85° |
| 2026-05-05 02:40 | 60.46491 | -41.85714 | 39303 ft | 512 kts | 85° |
| 2026-05-05 02:41 | 60.46856 | -41.71311 | 39303 ft | 512 kts | 85° |
| 2026-05-05 02:41 | 60.47207 | -41.56897 | 39303 ft | 512 kts | 85° |
| 2026-05-05 02:42 | 60.47541 | -41.42491 | 39298 ft | 512 kts | 85° |
| 2026-05-05 02:42 | 60.47861 | -41.28072 | 39298 ft | 512 kts | 85° |
| 2026-05-05 02:43 | 60.48164 | -41.13643 | 39295 ft | 513 kts | 85° |
| 2026-05-05 02:43 | 60.48451 | -40.99261 | 39289 ft | 513 kts | 85° |
| 2026-05-05 02:44 | 60.48725 | -40.84802 | 39290 ft | 513 kts | 85° |
| 2026-05-05 02:44 | 60.48982 | -40.70339 | 39289 ft | 513 kts | 85° |
| 2026-05-05 02:45 | 60.49224 | -40.55878 | 39284 ft | 513 kts | 86° |
| 2026-05-05 02:45 | 60.49450 | -40.41413 | 39284 ft | 513 kts | 86° |
| 2026-05-05 02:46 | 60.49661 | -40.26953 | 39287 ft | 512 kts | 86° |
| 2026-05-05 02:46 | 60.49854 | -40.12618 | 39280 ft | 512 kts | 86° |
| 2026-05-05 02:47 | 60.50033 | -39.98177 | 39273 ft | 512 kts | 86° |
| 2026-05-05 02:47 | 60.49948 | -39.83759 | 39271 ft | 511 kts | 89° |
| 2026-05-05 02:48 | 60.49668 | -39.69355 | 39275 ft | 511 kts | 90° |
| 2026-05-05 02:48 | 60.49400 | -39.54969 | 39274 ft | 510 kts | 89° |
| 2026-05-05 02:49 | 60.49159 | -39.40584 | 39274 ft | 509 kts | 89° |
| 2026-05-05 02:49 | 60.48919 | -39.26337 | 39268 ft | 508 kts | 89° |
| 2026-05-05 02:50 | 60.48663 | -39.12015 | 39263 ft | 508 kts | 89° |
| 2026-05-05 02:50 | 60.48390 | -38.97684 | 39263 ft | 508 kts | 89° |
| 2026-05-05 02:51 | 60.48101 | -38.83374 | 39265 ft | 508 kts | 90° |
| 2026-05-05 02:51 | 60.47796 | -38.69072 | 39262 ft | 508 kts | 90° |
| 2026-05-05 02:52 | 60.47479 | -38.54873 | 39271 ft | 508 kts | 90° |
| 2026-05-05 02:52 | 60.47144 | -38.40567 | 39260 ft | 508 kts | 90° |
| 2026-05-05 02:53 | 60.46794 | -38.26251 | 39260 ft | 509 kts | 90° |
| 2026-05-05 02:53 | 60.46427 | -38.11934 | 39262 ft | 509 kts | 90° |
| 2026-05-05 02:54 | 60.46046 | -37.97624 | 39255 ft | 509 kts | 90° |
| 2026-05-05 02:54 | 60.45649 | -37.83326 | 39259 ft | 508 kts | 90° |
| 2026-05-05 02:55 | 60.45237 | -37.69030 | 39285 ft | 508 kts | 90° |
| 2026-05-05 02:55 | 60.44813 | -37.54838 | 39262 ft | 509 kts | 90° |
| 2026-05-05 02:56 | 60.44370 | -37.40524 | 39260 ft | 509 kts | 90° |
| 2026-05-05 02:56 | 60.43912 | -37.26214 | 39259 ft | 509 kts | 91° |
| 2026-05-05 02:57 | 60.43438 | -37.11911 | 39257 ft | 509 kts | 91° |
| 2026-05-05 02:57 | 60.42949 | -36.97612 | 39256 ft | 509 kts | 91° |
| 2026-05-05 02:58 | 60.42444 | -36.83311 | 39259 ft | 509 kts | 91° |
| 2026-05-05 02:58 | 60.41925 | -36.69024 | 39258 ft | 509 kts | 91° |
| 2026-05-05 02:59 | 60.41394 | -36.54838 | 39263 ft | 509 kts | 91° |
| 2026-05-05 02:59 | 60.40843 | -36.40551 | 39257 ft | 509 kts | 91° |
| 2026-05-05 03:00 | 60.40278 | -36.26276 | 39264 ft | 509 kts | 91° |
| 2026-05-05 03:00 | 60.39697 | -36.12004 | 39266 ft | 509 kts | 91° |
| 2026-05-05 03:01 | 60.39101 | -35.97729 | 39261 ft | 509 kts | 92° |
| 2026-05-05 03:01 | 60.38489 | -35.83449 | 39267 ft | 512 kts | 91° |
| 2026-05-05 03:02 | 60.37862 | -35.69160 | 39260 ft | 514 kts | 92° |
| 2026-05-05 03:02 | 60.37213 | -35.54759 | 39261 ft | 515 kts | 92° |
| 2026-05-05 03:03 | 60.36548 | -35.40366 | 39261 ft | 515 kts | 92° |
| 2026-05-05 03:03 | 60.35868 | -35.25972 | 39263 ft | 515 kts | 92° |
| 2026-05-05 03:04 | 60.35173 | -35.11587 | 39261 ft | 515 kts | 92° |
| 2026-05-05 03:04 | 60.34462 | -34.97209 | 39266 ft | 515 kts | 92° |
| 2026-05-05 03:05 | 60.33738 | -34.82856 | 39258 ft | 519 kts | 92° |
| 2026-05-05 03:05 | 60.32989 | -34.68345 | 39263 ft | 520 kts | 92° |
| 2026-05-05 03:06 | 60.32222 | -34.53834 | 39263 ft | 520 kts | 92° |
| 2026-05-05 03:06 | 60.31440 | -34.39320 | 39257 ft | 520 kts | 93° |
| 2026-05-05 03:07 | 60.30642 | -34.24814 | 39260 ft | 520 kts | 93° |
| 2026-05-05 03:07 | 60.29829 | -34.10324 | 39278 ft | 520 kts | 93° |
| 2026-05-05 03:08 | 60.28999 | -33.95801 | 39259 ft | 522 kts | 93° |
| 2026-05-05 03:08 | 60.28156 | -33.81352 | 39259 ft | 523 kts | 93° |
| 2026-05-05 03:09 | 60.27291 | -33.66806 | 39259 ft | 523 kts | 94° |
| 2026-05-05 03:09 | 60.26409 | -33.52261 | 39259 ft | 523 kts | 94° |
| 2026-05-05 03:10 | 60.25512 | -33.37731 | 39263 ft | 523 kts | 94° |
| 2026-05-05 03:10 | 60.24600 | -33.23204 | 39292 ft | 523 kts | 94° |
| 2026-05-05 03:11 | 60.23671 | -33.08673 | 39265 ft | 524 kts | 94° |
| 2026-05-05 03:11 | 60.22725 | -32.94143 | 39259 ft | 524 kts | 94° |
| 2026-05-05 03:12 | 60.21769 | -32.79716 | 39264 ft | 523 kts | 94° |
| 2026-05-05 03:12 | 60.20791 | -32.65207 | 39264 ft | 524 kts | 95° |
| 2026-05-05 03:13 | 60.19798 | -32.50705 | 39268 ft | 524 kts | 95° |
| 2026-05-05 03:13 | 60.18790 | -32.36218 | 39265 ft | 523 kts | 95° |
| 2026-05-05 03:14 | 60.17765 | -32.21734 | 39272 ft | 524 kts | 95° |
| 2026-05-05 03:14 | 60.16725 | -32.07256 | 39270 ft | 524 kts | 95° |
| 2026-05-05 03:15 | 60.15675 | -31.92882 | 39274 ft | 524 kts | 95° |
| 2026-05-05 03:15 | 60.14603 | -31.78435 | 39276 ft | 523 kts | 95° |
| 2026-05-05 03:16 | 60.13517 | -31.64002 | 39279 ft | 523 kts | 96° |
| 2026-05-05 03:16 | 60.12415 | -31.49584 | 39281 ft | 523 kts | 96° |
| 2026-05-05 03:17 | 60.11298 | -31.35183 | 39287 ft | 523 kts | 96° |
| 2026-05-05 03:17 | 60.10165 | -31.20785 | 39287 ft | 523 kts | 96° |
| 2026-05-05 03:18 | 60.09023 | -31.06491 | 39292 ft | 523 kts | 96° |
| 2026-05-05 03:18 | 60.07858 | -30.92104 | 39296 ft | 523 kts | 96° |
| 2026-05-05 03:19 | 60.06080 | -30.70530 | 39296 ft | 524 kts | 96° |
| 2026-05-05 03:19 | 60.04876 | -30.56158 | 39310 ft | 524 kts | 96° |
| 2026-05-05 03:20 | 60.03656 | -30.41807 | 39300 ft | 523 kts | 97° |
| 2026-05-05 03:20 | 60.02429 | -30.27560 | 39300 ft | 523 kts | 97° |
| 2026-05-05 03:21 | 60.01178 | -30.13233 | 39306 ft | 523 kts | 97° |
| 2026-05-05 03:21 | 59.99913 | -29.98916 | 39303 ft | 523 kts | 97° |
| 2026-05-05 03:22 | 59.98908 | -29.84570 | 39308 ft | 520 kts | 93° |
| 2026-05-05 03:22 | 59.98121 | -29.70227 | 39321 ft | 520 kts | 93° |
| 2026-05-05 03:23 | 59.97297 | -29.55996 | 39311 ft | 520 kts | 94° |
| 2026-05-05 03:23 | 59.96403 | -29.41676 | 39311 ft | 520 kts | 94° |
| 2026-05-05 03:24 | 59.95474 | -29.27374 | 39314 ft | 520 kts | 94° |
| 2026-05-05 03:24 | 59.94528 | -29.13081 | 39314 ft | 520 kts | 95° |
| 2026-05-05 03:25 | 59.93568 | -28.98788 | 39315 ft | 520 kts | 95° |
| 2026-05-05 03:25 | 59.92596 | -28.84512 | 39317 ft | 519 kts | 95° |
| 2026-05-05 03:26 | 59.91615 | -28.70348 | 39311 ft | 519 kts | 95° |
| 2026-05-05 03:26 | 59.90613 | -28.56103 | 39317 ft | 519 kts | 95° |
| 2026-05-05 03:27 | 59.89594 | -28.41864 | 39322 ft | 519 kts | 95° |
| 2026-05-05 03:27 | 59.88561 | -28.27635 | 39322 ft | 519 kts | 95° |
| 2026-05-05 03:28 | 59.87512 | -28.13417 | 39319 ft | 519 kts | 96° |
| 2026-05-05 03:28 | 59.86448 | -27.99203 | 39319 ft | 519 kts | 96° |
| 2026-05-05 03:29 | 59.85369 | -27.84998 | 39313 ft | 519 kts | 96° |
| 2026-05-05 03:29 | 59.84282 | -27.70904 | 39319 ft | 519 kts | 96° |
| 2026-05-05 03:30 | 59.83173 | -27.56736 | 39322 ft | 519 kts | 96° |
| 2026-05-05 03:30 | 59.82049 | -27.42577 | 39322 ft | 519 kts | 96° |
| 2026-05-05 03:31 | 59.81104 | -27.30818 | 39327 ft | 519 kts | 96° |
| 2026-05-05 03:31 | 59.79952 | -27.16675 | 39325 ft | 519 kts | 97° |
| 2026-05-05 03:32 | 59.78783 | -27.02523 | 39325 ft | 519 kts | 97° |
| 2026-05-05 03:32 | 59.77601 | -26.88394 | 39322 ft | 519 kts | 97° |
| 2026-05-05 03:33 | 59.76402 | -26.74266 | 39324 ft | 519 kts | 97° |
| 2026-05-05 03:33 | 59.75190 | -26.60161 | 39324 ft | 519 kts | 97° |
| 2026-05-05 03:34 | 59.73962 | -26.46069 | 39345 ft | 519 kts | 97° |
| 2026-05-05 03:34 | 59.72728 | -26.32080 | 39320 ft | 519 kts | 98° |
| 2026-05-05 03:35 | 59.71469 | -26.17998 | 39324 ft | 519 kts | 98° |
| 2026-05-05 03:35 | 59.70196 | -26.03932 | 39323 ft | 519 kts | 98° |
| 2026-05-05 03:36 | 59.68908 | -25.89870 | 39327 ft | 519 kts | 98° |
| 2026-05-05 03:36 | 59.67604 | -25.75817 | 39311 ft | 519 kts | 98° |
| 2026-05-05 03:37 | 59.66295 | -25.61878 | 39334 ft | 519 kts | 98° |
| 2026-05-05 03:37 | 59.64962 | -25.47859 | 39323 ft | 519 kts | 99° |
| 2026-05-05 03:38 | 59.63615 | -25.33853 | 39319 ft | 519 kts | 99° |
| 2026-05-05 03:38 | 59.62252 | -25.19851 | 39325 ft | 519 kts | 99° |
| 2026-05-05 03:39 | 59.60874 | -25.05867 | 39324 ft | 519 kts | 99° |
| 2026-05-05 03:39 | 59.59482 | -24.91891 | 39322 ft | 519 kts | 99° |
| 2026-05-05 03:40 | 59.58084 | -24.78018 | 39330 ft | 519 kts | 99° |
| 2026-05-05 03:40 | 59.56662 | -24.64066 | 39322 ft | 519 kts | 100° |
| 2026-05-05 03:41 | 59.55225 | -24.50127 | 39322 ft | 519 kts | 100° |
| 2026-05-05 03:41 | 59.53774 | -24.36207 | 39322 ft | 519 kts | 100° |
| 2026-05-05 03:42 | 59.52307 | -24.22284 | 39320 ft | 519 kts | 100° |
| 2026-05-05 03:42 | 59.50826 | -24.08384 | 39321 ft | 519 kts | 100° |
| 2026-05-05 03:43 | 59.49330 | -23.94492 | 39327 ft | 519 kts | 101° |
| 2026-05-05 03:43 | 59.47829 | -23.80696 | 39325 ft | 519 kts | 101° |
| 2026-05-05 03:44 | 59.46302 | -23.66816 | 39325 ft | 519 kts | 101° |
| 2026-05-05 03:44 | 59.44761 | -23.52957 | 39325 ft | 519 kts | 101° |
| 2026-05-05 03:45 | 59.43206 | -23.39107 | 39326 ft | 519 kts | 101° |
| 2026-05-05 03:45 | 59.41635 | -23.25269 | 39340 ft | 519 kts | 101° |
| 2026-05-05 03:46 | 59.40051 | -23.11444 | 39327 ft | 519 kts | 101° |
| 2026-05-05 03:46 | 59.38449 | -22.97618 | 39318 ft | 520 kts | 102° |
| 2026-05-05 03:47 | 59.36834 | -22.83809 | 39322 ft | 520 kts | 102° |
| 2026-05-05 03:47 | 59.35203 | -22.70003 | 39325 ft | 520 kts | 102° |
| 2026-05-05 03:48 | 59.33570 | -22.56315 | 39317 ft | 519 kts | 102° |
| 2026-05-05 03:48 | 59.31912 | -22.42557 | 39334 ft | 519 kts | 102° |
| 2026-05-05 03:49 | 59.30240 | -22.28811 | 39321 ft | 519 kts | 102° |
| 2026-05-05 03:49 | 59.28552 | -22.15070 | 39312 ft | 520 kts | 102° |
| 2026-05-05 03:50 | 59.26850 | -22.01342 | 39319 ft | 519 kts | 102° |
| 2026-05-05 03:50 | 59.25134 | -21.87630 | 39318 ft | 519 kts | 103° |
| 2026-05-05 03:51 | 59.23401 | -21.73921 | 39323 ft | 519 kts | 103° |
| 2026-05-05 03:51 | 59.21657 | -21.60241 | 39311 ft | 519 kts | 103° |
| 2026-05-05 03:52 | 59.19898 | -21.46578 | 39312 ft | 519 kts | 103° |
| 2026-05-05 03:52 | 59.18137 | -21.33021 | 39312 ft | 519 kts | 103° |
| 2026-05-05 03:53 | 59.16350 | -21.19383 | 39313 ft | 519 kts | 103° |
| 2026-05-05 03:53 | 59.14548 | -21.05763 | 39308 ft | 519 kts | 103° |
| 2026-05-05 03:54 | 59.12732 | -20.92156 | 39323 ft | 519 kts | 103° |
| 2026-05-05 03:54 | 59.10902 | -20.78560 | 39312 ft | 519 kts | 104° |
| 2026-05-05 03:55 | 59.09058 | -20.64981 | 39301 ft | 519 kts | 104° |
| 2026-05-05 03:55 | 59.07212 | -20.51508 | 39309 ft | 519 kts | 104° |
| 2026-05-05 03:56 | 59.05340 | -20.37966 | 39305 ft | 519 kts | 104° |
| 2026-05-05 03:56 | 59.03454 | -20.24430 | 39304 ft | 519 kts | 104° |
| 2026-05-05 03:57 | 59.01553 | -20.10907 | 39303 ft | 519 kts | 104° |
| 2026-05-05 03:57 | 58.99332 | -19.97597 | 39304 ft | 520 kts | 113° |
| 2026-05-05 03:58 | 58.96346 | -19.84831 | 39295 ft | 520 kts | 115° |
| 2026-05-05 03:58 | 58.93222 | -19.72199 | 39302 ft | 520 kts | 116° |
| 2026-05-05 03:59 | 58.90074 | -19.59601 | 39303 ft | 520 kts | 116° |
| 2026-05-05 03:59 | 58.86952 | -19.47110 | 39303 ft | 520 kts | 116° |
| 2026-05-05 04:00 | 58.83804 | -19.34543 | 39302 ft | 520 kts | 116° |
| 2026-05-05 04:00 | 58.80646 | -19.22000 | 39292 ft | 520 kts | 116° |
| 2026-05-05 04:01 | 58.77474 | -19.09475 | 39292 ft | 519 kts | 116° |
| 2026-05-05 04:01 | 58.74292 | -18.96984 | 39290 ft | 519 kts | 116° |
| 2026-05-05 04:02 | 58.71100 | -18.84528 | 39288 ft | 519 kts | 116° |
| 2026-05-05 04:02 | 58.67898 | -18.72096 | 39283 ft | 519 kts | 116° |
| 2026-05-05 04:03 | 58.64684 | -18.59690 | 39282 ft | 519 kts | 116° |
| 2026-05-05 04:03 | 58.61457 | -18.47302 | 39287 ft | 519 kts | 117° |
| 2026-05-05 04:04 | 58.58218 | -18.34936 | 39280 ft | 519 kts | 117° |
| 2026-05-05 04:04 | 58.54965 | -18.22586 | 39279 ft | 519 kts | 117° |
| 2026-05-05 04:05 | 58.51702 | -18.10268 | 39260 ft | 519 kts | 117° |
| 2026-05-05 04:05 | 58.48428 | -17.97972 | 39255 ft | 519 kts | 117° |
| 2026-05-05 04:06 | 58.45164 | -17.85781 | 39252 ft | 519 kts | 117° |
| 2026-05-05 04:06 | 58.41868 | -17.73539 | 39252 ft | 519 kts | 117° |
| 2026-05-05 04:07 | 58.38559 | -17.61313 | 39238 ft | 519 kts | 118° |
| 2026-05-05 04:07 | 58.35243 | -17.49127 | 39258 ft | 518 kts | 118° |
| 2026-05-05 04:08 | 58.31917 | -17.36968 | 39246 ft | 518 kts | 118° |
| 2026-05-05 04:08 | 58.28602 | -17.24915 | 39233 ft | 518 kts | 118° |
| 2026-05-05 04:09 | 58.25255 | -17.12811 | 39233 ft | 518 kts | 118° |
| 2026-05-05 04:09 | 58.21894 | -17.00721 | 39228 ft | 518 kts | 118° |
| 2026-05-05 04:10 | 58.18523 | -16.88657 | 39231 ft | 517 kts | 118° |
| 2026-05-05 04:10 | 58.15145 | -16.76629 | 39228 ft | 517 kts | 118° |
| 2026-05-05 04:11 | 58.11758 | -16.64636 | 39220 ft | 517 kts | 119° |
| 2026-05-05 04:11 | 58.08357 | -16.52657 | 39232 ft | 517 kts | 119° |
| 2026-05-05 04:12 | 58.04947 | -16.40704 | 39237 ft | 517 kts | 119° |
| 2026-05-05 04:12 | 58.01525 | -16.28775 | 39233 ft | 517 kts | 119° |
| 2026-05-05 04:13 | 57.98113 | -16.16942 | 39219 ft | 516 kts | 119° |
| 2026-05-05 04:13 | 57.94678 | -16.05086 | 39224 ft | 515 kts | 119° |
| 2026-05-05 04:14 | 57.91234 | -15.93262 | 39226 ft | 515 kts | 119° |
| 2026-05-05 04:14 | 57.87778 | -15.81459 | 39226 ft | 515 kts | 120° |
| 2026-05-05 04:15 | 57.84312 | -15.69679 | 39219 ft | 515 kts | 120° |
| 2026-05-05 04:15 | 57.80834 | -15.57920 | 39216 ft | 515 kts | 120° |
| 2026-05-05 04:16 | 57.77346 | -15.46186 | 39208 ft | 515 kts | 120° |
| 2026-05-05 04:16 | 57.73848 | -15.34477 | 39201 ft | 515 kts | 120° |
| 2026-05-05 04:17 | 57.70360 | -15.22859 | 39217 ft | 516 kts | 120° |
| 2026-05-05 04:17 | 57.66835 | -15.11179 | 39207 ft | 516 kts | 120° |
| 2026-05-05 04:18 | 57.63297 | -14.99511 | 39210 ft | 516 kts | 120° |
| 2026-05-05 04:18 | 57.59752 | -14.87879 | 39193 ft | 516 kts | 120° |
| 2026-05-05 04:19 | 57.56195 | -14.76267 | 39216 ft | 515 kts | 120° |
| 2026-05-05 04:19 | 57.52636 | -14.64703 | 39214 ft | 515 kts | 121° |
| 2026-05-05 04:20 | 57.49068 | -14.53170 | 39210 ft | 515 kts | 121° |
| 2026-05-05 04:20 | 57.45487 | -14.41649 | 39205 ft | 515 kts | 121° |
| 2026-05-05 04:21 | 57.41918 | -14.30224 | 39202 ft | 515 kts | 121° |
| 2026-05-05 04:21 | 57.38316 | -14.18745 | 39202 ft | 515 kts | 121° |
| 2026-05-05 04:22 | 57.34708 | -14.07308 | 39199 ft | 514 kts | 121° |
| 2026-05-05 04:22 | 57.31094 | -13.95904 | 39198 ft | 514 kts | 121° |
| 2026-05-05 04:23 | 57.27473 | -13.84532 | 39200 ft | 514 kts | 121° |
| 2026-05-05 04:23 | 57.23838 | -13.73174 | 39191 ft | 514 kts | 121° |
| 2026-05-05 04:24 | 57.20192 | -13.61833 | 39188 ft | 514 kts | 121° |
| 2026-05-05 04:25 | 57.14712 | -13.44889 | 39185 ft | 512 kts | 122° |
| 2026-05-05 04:25 | 57.11075 | -13.33713 | 39183 ft | 512 kts | 122° |
| 2026-05-05 04:26 | 57.07407 | -13.22490 | 39182 ft | 512 kts | 122° |
| 2026-05-05 04:26 | 57.03728 | -13.11290 | 39181 ft | 512 kts | 122° |
| 2026-05-05 04:27 | 56.99429 | -13.00954 | 39176 ft | 509 kts | 138° |
| 2026-05-05 04:27 | 56.93735 | -12.93403 | 39176 ft | 505 kts | 151° |
| 2026-05-05 04:28 | 56.87633 | -12.87079 | 39177 ft | 504 kts | 153° |
| 2026-05-05 04:28 | 56.81897 | -12.79718 | 39176 ft | 508 kts | 137° |
| 2026-05-05 04:29 | 56.77673 | -12.69417 | 39176 ft | 510 kts | 120° |
| 2026-05-05 04:29 | 56.74429 | -12.57897 | 39153 ft | 511 kts | 116° |
| 2026-05-05 04:30 | 56.71329 | -12.46257 | 39167 ft | 510 kts | 116° |
| 2026-05-05 04:30 | 56.68220 | -12.34758 | 39164 ft | 510 kts | 117° |
| 2026-05-05 04:31 | 56.65044 | -12.23233 | 39166 ft | 510 kts | 117° |
| 2026-05-05 04:31 | 56.61845 | -12.11743 | 39161 ft | 510 kts | 117° |
| 2026-05-05 04:32 | 56.58637 | -12.00282 | 39158 ft | 510 kts | 117° |
| 2026-05-05 04:32 | 56.55414 | -11.88820 | 39160 ft | 510 kts | 117° |
| 2026-05-05 04:33 | 56.52188 | -11.77395 | 39157 ft | 509 kts | 117° |
| 2026-05-05 04:33 | 56.48957 | -11.66012 | 39159 ft | 508 kts | 117° |
| 2026-05-05 04:34 | 56.45715 | -11.54645 | 39153 ft | 508 kts | 117° |
| 2026-05-05 04:34 | 56.42467 | -11.43313 | 39154 ft | 508 kts | 118° |
| 2026-05-05 04:35 | 56.39207 | -11.31991 | 39149 ft | 508 kts | 118° |
| 2026-05-05 04:35 | 56.35935 | -11.20686 | 39148 ft | 508 kts | 118° |
| 2026-05-05 04:36 | 56.32678 | -11.09488 | 39152 ft | 508 kts | 118° |
| 2026-05-05 04:36 | 56.29392 | -10.98243 | 39146 ft | 507 kts | 118° |
| 2026-05-05 04:37 | 56.26098 | -10.87026 | 39148 ft | 507 kts | 118° |
| 2026-05-05 04:37 | 56.22794 | -10.75826 | 39144 ft | 507 kts | 118° |
| 2026-05-05 04:38 | 56.19478 | -10.64642 | 39144 ft | 507 kts | 118° |
| 2026-05-05 04:38 | 56.16151 | -10.53471 | 39141 ft | 507 kts | 118° |
| 2026-05-05 04:39 | 56.13379 | -10.44206 | 39138 ft | 507 kts | 118° |
| 2026-05-05 04:39 | 56.10037 | -10.33085 | 39140 ft | 506 kts | 118° |
| 2026-05-05 04:40 | 56.06145 | -10.20197 | 39137 ft | 506 kts | 119° |
| 2026-05-05 04:40 | 56.03334 | -10.10931 | 39136 ft | 506 kts | 119° |
| 2026-05-05 04:41 | 55.99967 | -9.99882 | 39130 ft | 506 kts | 119° |
| 2026-05-05 04:41 | 55.96468 | -9.88972 | 39128 ft | 506 kts | 121° |
| 2026-05-05 04:42 | 55.92831 | -9.78225 | 39133 ft | 506 kts | 122° |
| 2026-05-05 04:42 | 55.89220 | -9.67562 | 39126 ft | 506 kts | 121° |
| 2026-05-05 04:43 | 55.85602 | -9.56824 | 39129 ft | 506 kts | 121° |
| 2026-05-05 04:43 | 55.81986 | -9.46096 | 39127 ft | 505 kts | 121° |
| 2026-05-05 04:44 | 55.78362 | -9.35389 | 39129 ft | 505 kts | 122° |
| 2026-05-05 04:44 | 55.74729 | -9.24707 | 39126 ft | 505 kts | 122° |
| 2026-05-05 04:45 | 55.71085 | -9.14039 | 39119 ft | 506 kts | 122° |
| 2026-05-05 04:45 | 55.67432 | -9.03395 | 39119 ft | 505 kts | 122° |
| 2026-05-05 04:46 | 55.63769 | -8.92766 | 39118 ft | 506 kts | 122° |
| 2026-05-05 04:46 | 55.60094 | -8.82153 | 39115 ft | 506 kts | 122° |
| 2026-05-05 04:47 | 55.56413 | -8.71566 | 39109 ft | 506 kts | 122° |
| 2026-05-05 04:47 | 55.52720 | -8.60991 | 39109 ft | 506 kts | 122° |
| 2026-05-05 04:48 | 55.49043 | -8.50508 | 39108 ft | 506 kts | 122° |
| 2026-05-05 04:48 | 55.45337 | -8.39987 | 39104 ft | 505 kts | 122° |
| 2026-05-05 04:49 | 55.41625 | -8.29494 | 39106 ft | 505 kts | 123° |
| 2026-05-05 04:49 | 55.37905 | -8.19022 | 39102 ft | 505 kts | 123° |
| 2026-05-05 04:50 | 55.34174 | -8.08568 | 39102 ft | 505 kts | 123° |
| 2026-05-05 04:50 | 55.30433 | -7.98126 | 39100 ft | 505 kts | 123° |
| 2026-05-05 04:51 | 55.26684 | -7.87710 | 39087 ft | 505 kts | 123° |
| 2026-05-05 04:51 | 55.22931 | -7.77325 | 39097 ft | 504 kts | 123° |
| 2026-05-05 04:52 | 55.19177 | -7.66980 | 39094 ft | 503 kts | 123° |
| 2026-05-05 04:52 | 55.15412 | -7.56649 | 39092 ft | 503 kts | 123° |
| 2026-05-05 04:53 | 55.11641 | -7.46347 | 39087 ft | 503 kts | 123° |
| 2026-05-05 04:53 | 55.07861 | -7.36064 | 39088 ft | 503 kts | 123° |
| 2026-05-05 04:54 | 55.04070 | -7.25790 | 39083 ft | 503 kts | 123° |
| 2026-05-05 04:54 | 55.00276 | -7.15553 | 39087 ft | 503 kts | 123° |
| 2026-05-05 04:55 | 54.96499 | -7.05404 | 39084 ft | 502 kts | 124° |
| 2026-05-05 04:55 | 54.92695 | -6.95225 | 39083 ft | 502 kts | 124° |
| 2026-05-05 04:56 | 54.88887 | -6.85076 | 39083 ft | 502 kts | 124° |
| 2026-05-05 04:56 | 54.85067 | -6.74938 | 39083 ft | 502 kts | 124° |
| 2026-05-05 04:57 | 54.81240 | -6.64824 | 39071 ft | 501 kts | 124° |
| 2026-05-05 04:57 | 54.77407 | -6.54733 | 39079 ft | 501 kts | 124° |
| 2026-05-05 04:58 | 54.73568 | -6.44667 | 39076 ft | 501 kts | 124° |
| 2026-05-05 04:58 | 54.69723 | -6.34627 | 39074 ft | 501 kts | 124° |
| 2026-05-05 04:59 | 54.65892 | -6.24666 | 39075 ft | 501 kts | 124° |
| 2026-05-05 04:59 | 54.62028 | -6.14657 | 39075 ft | 501 kts | 124° |
| 2026-05-05 05:00 | 54.58159 | -6.04676 | 39071 ft | 500 kts | 124° |
| 2026-05-05 05:00 | 54.54290 | -5.94734 | 39075 ft | 499 kts | 124° |
| 2026-05-05 05:01 | 54.50420 | -5.84831 | 39078 ft | 498 kts | 124° |
| 2026-05-05 05:01 | 54.46542 | -5.74947 | 39070 ft | 498 kts | 125° |
| 2026-05-05 05:02 | 54.42661 | -5.65094 | 39067 ft | 498 kts | 125° |
| 2026-05-05 05:02 | 54.38769 | -5.55249 | 39065 ft | 498 kts | 125° |
| 2026-05-05 05:03 | 54.34896 | -5.45494 | 39062 ft | 498 kts | 125° |
| 2026-05-05 05:03 | 54.30993 | -5.35702 | 39065 ft | 497 kts | 125° |
| 2026-05-05 05:04 | 54.27084 | -5.25932 | 39063 ft | 497 kts | 125° |
| 2026-05-05 05:04 | 54.23170 | -5.16188 | 39062 ft | 497 kts | 125° |
| 2026-05-05 05:05 | 54.19247 | -5.06459 | 39058 ft | 497 kts | 125° |
| 2026-05-05 05:05 | 54.15315 | -4.96748 | 39056 ft | 497 kts | 126° |
| 2026-05-05 05:06 | 54.11380 | -4.87065 | 39059 ft | 496 kts | 126° |
| 2026-05-05 05:06 | 54.07445 | -4.77420 | 39058 ft | 495 kts | 126° |
| 2026-05-05 05:07 | 54.03509 | -4.67809 | 39046 ft | 495 kts | 126° |
| 2026-05-05 05:07 | 53.99567 | -4.58221 | 39051 ft | 495 kts | 126° |
| 2026-05-05 05:08 | 53.95615 | -4.48644 | 39048 ft | 495 kts | 126° |
| 2026-05-05 05:08 | 53.91659 | -4.39095 | 39049 ft | 495 kts | 126° |
| 2026-05-05 05:09 | 53.87712 | -4.29547 | 39048 ft | 493 kts | 125° |
| 2026-05-05 05:09 | 53.83811 | -4.19989 | 39051 ft | 493 kts | 125° |
| 2026-05-05 05:10 | 53.79910 | -4.10445 | 39054 ft | 493 kts | 125° |
| 2026-05-05 05:10 | 53.76014 | -4.00990 | 39054 ft | 493 kts | 126° |
| 2026-05-05 05:11 | 53.72078 | -3.91490 | 39049 ft | 493 kts | 126° |
| 2026-05-05 05:11 | 53.68138 | -3.82014 | 39052 ft | 493 kts | 126° |
| 2026-05-05 05:12 | 53.64195 | -3.72565 | 39048 ft | 492 kts | 125° |
| 2026-05-05 05:12 | 53.60257 | -3.63153 | 39055 ft | 491 kts | 125° |
| 2026-05-05 05:13 | 53.56307 | -3.53749 | 39052 ft | 493 kts | 126° |
| 2026-05-05 05:13 | 53.52331 | -3.44333 | 39047 ft | 495 kts | 126° |
| 2026-05-05 05:14 | 53.48374 | -3.34994 | 39047 ft | 493 kts | 126° |
| 2026-05-05 05:14 | 53.44365 | -3.25562 | 39044 ft | 493 kts | 126° |
| 2026-05-05 05:15 | 53.40372 | -3.16201 | 39047 ft | 494 kts | 126° |
| 2026-05-05 05:15 | 53.36347 | -3.06884 | 39050 ft | 494 kts | 127° |
| 2026-05-05 05:16 | 53.32268 | -2.97766 | 39048 ft | 492 kts | 127° |
| 2026-05-05 05:16 | 53.28153 | -2.88631 | 39049 ft | 492 kts | 127° |
| 2026-05-05 05:17 | 53.24045 | -2.79500 | 39049 ft | 492 kts | 127° |
| 2026-05-05 05:17 | 53.19938 | -2.70380 | 39050 ft | 491 kts | 127° |
| 2026-05-05 05:18 | 53.15840 | -2.61296 | 39044 ft | 490 kts | 127° |
| 2026-05-05 05:18 | 53.11781 | -2.52155 | 39041 ft | 491 kts | 124° |
| 2026-05-05 05:19 | 53.07977 | -2.42717 | 39038 ft | 491 kts | 124° |
| 2026-05-05 05:19 | 53.04125 | -2.33374 | 38852 ft | 485 kts | 128° |
| 2026-05-05 05:19 | 53.01809 | -2.29324 | 37923 ft | 485 kts | 142° |
| 2026-05-05 05:20 | 52.99031 | -2.26129 | 37017 ft | 487 kts | 148° |
| 2026-05-05 05:20 | 52.96163 | -2.23154 | 36304 ft | 484 kts | 147° |
| 2026-05-05 05:20 | 52.93311 | -2.20202 | 35642 ft | 482 kts | 147° |
| 2026-05-05 05:20 | 52.90475 | -2.17257 | 34965 ft | 480 kts | 147° |
| 2026-05-05 05:21 | 52.87649 | -2.14317 | 34216 ft | 480 kts | 146° |
| 2026-05-05 05:21 | 52.84821 | -2.11372 | 33377 ft | 480 kts | 146° |
| 2026-05-05 05:21 | 52.82001 | -2.08437 | 32566 ft | 478 kts | 146° |
| 2026-05-05 05:21 | 52.79188 | -2.05511 | 31804 ft | 476 kts | 146° |
| 2026-05-05 05:22 | 52.76408 | -2.02624 | 31268 ft | 469 kts | 146° |
| 2026-05-05 05:22 | 52.73667 | -1.99781 | 30737 ft | 463 kts | 147° |
| 2026-05-05 05:22 | 52.70954 | -1.96970 | 30202 ft | 457 kts | 148° |
| 2026-05-05 05:22 | 52.68283 | -1.94207 | 29604 ft | 450 kts | 148° |
| 2026-05-05 05:23 | 52.65648 | -1.91486 | 29055 ft | 443 kts | 148° |
| 2026-05-05 05:23 | 52.63057 | -1.88814 | 28550 ft | 436 kts | 148° |
| 2026-05-05 05:23 | 52.60504 | -1.86186 | 28025 ft | 431 kts | 148° |
| 2026-05-05 05:23 | 52.57962 | -1.83572 | 27523 ft | 430 kts | 148° |
| 2026-05-05 05:24 | 52.55434 | -1.80976 | 27027 ft | 427 kts | 149° |
| 2026-05-05 05:24 | 52.52922 | -1.78400 | 26506 ft | 424 kts | 149° |
| 2026-05-05 05:24 | 52.50456 | -1.75874 | 26024 ft | 421 kts | 149° |
| 2026-05-05 05:24 | 52.47980 | -1.73342 | 25530 ft | 418 kts | 149° |
| 2026-05-05 05:25 | 52.45525 | -1.70835 | 25025 ft | 414 kts | 149° |
| 2026-05-05 05:25 | 52.43084 | -1.68345 | 24556 ft | 412 kts | 150° |
| 2026-05-05 05:25 | 52.40663 | -1.65879 | 24052 ft | 409 kts | 150° |
| 2026-05-05 05:25 | 52.38255 | -1.63429 | 23555 ft | 406 kts | 150° |
| 2026-05-05 05:26 | 52.35866 | -1.61003 | 22994 ft | 403 kts | 150° |
| 2026-05-05 05:26 | 52.33492 | -1.58595 | 22501 ft | 400 kts | 150° |
| 2026-05-05 05:26 | 52.31137 | -1.56209 | 21999 ft | 397 kts | 150° |
| 2026-05-05 05:26 | 52.28795 | -1.53839 | 21475 ft | 394 kts | 150° |
| 2026-05-05 05:27 | 52.26472 | -1.51493 | 20986 ft | 391 kts | 149° |
| 2026-05-05 05:27 | 52.24169 | -1.49169 | 20485 ft | 388 kts | 149° |
| 2026-05-05 05:27 | 52.19785 | -1.44049 | 19672 ft | 398 kts | 141° |
| 2026-05-05 05:28 | 52.17658 | -1.41082 | 19353 ft | 405 kts | 140° |
| 2026-05-05 05:28 | 52.15529 | -1.38095 | 18833 ft | 403 kts | 140° |
| 2026-05-05 05:28 | 52.13411 | -1.35129 | 18386 ft | 401 kts | 140° |
| 2026-05-05 05:28 | 52.11352 | -1.32255 | 17951 ft | 398 kts | 140° |
| 2026-05-05 05:29 | 52.09251 | -1.29328 | 17528 ft | 396 kts | 140° |
| 2026-05-05 05:29 | 52.07160 | -1.26421 | 17137 ft | 395 kts | 140° |
| 2026-05-05 05:29 | 52.05079 | -1.23531 | 16750 ft | 393 kts | 140° |
| 2026-05-05 05:29 | 52.03005 | -1.20657 | 16357 ft | 391 kts | 140° |
| 2026-05-05 05:30 | 52.00940 | -1.17798 | 15968 ft | 389 kts | 140° |
| 2026-05-05 05:30 | 51.98887 | -1.14960 | 15577 ft | 387 kts | 140° |
| 2026-05-05 05:30 | 51.96839 | -1.12132 | 15168 ft | 386 kts | 140° |
| 2026-05-05 05:30 | 51.94802 | -1.09318 | 14805 ft | 382 kts | 140° |
| 2026-05-05 05:31 | 51.92816 | -1.06579 | 14560 ft | 367 kts | 140° |
| 2026-05-05 05:31 | 51.90908 | -1.03953 | 14314 ft | 353 kts | 140° |
| 2026-05-05 05:31 | 51.89070 | -1.01429 | 14070 ft | 339 kts | 140° |
| 2026-05-05 05:31 | 51.87339 | -0.99051 | 13712 ft | 315 kts | 140° |
| 2026-05-05 05:32 | 51.85775 | -0.96816 | 13306 ft | 294 kts | 134° |
| 2026-05-05 05:32 | 51.84636 | -0.94191 | 12819 ft | 280 kts | 118° |
| 2026-05-05 05:32 | 51.83766 | -0.91415 | 12157 ft | 275 kts | 116° |
| 2026-05-05 05:32 | 51.82941 | -0.88654 | 11519 ft | 271 kts | 116° |
| 2026-05-05 05:33 | 51.82130 | -0.85951 | 11032 ft | 264 kts | 116° |
| 2026-05-05 05:33 | 51.81323 | -0.83285 | 10678 ft | 265 kts | 116° |
| 2026-05-05 05:33 | 51.80509 | -0.80610 | 10328 ft | 265 kts | 116° |
| 2026-05-05 05:33 | 51.79695 | -0.77947 | 9967 ft | 264 kts | 116° |
| 2026-05-05 05:34 | 51.78884 | -0.75302 | 9603 ft | 262 kts | 116° |
| 2026-05-05 05:34 | 51.78081 | -0.72687 | 9246 ft | 258 kts | 116° |
| 2026-05-05 05:34 | 51.77285 | -0.70098 | 8903 ft | 257 kts | 116° |
| 2026-05-05 05:34 | 51.76759 | -0.68393 | 8684 ft | 256 kts | 116° |
| 2026-05-05 05:35 | 51.75968 | -0.65826 | 8345 ft | 255 kts | 116° |
| 2026-05-05 05:35 | 51.75180 | -0.63272 | 8012 ft | 254 kts | 116° |
| 2026-05-05 05:35 | 51.74396 | -0.60732 | 7662 ft | 252 kts | 116° |
| 2026-05-05 05:35 | 51.73609 | -0.58208 | 7347 ft | 251 kts | 117° |
| 2026-05-05 05:36 | 51.72559 | -0.55985 | 7036 ft | 250 kts | 141° |
| 2026-05-05 05:36 | 51.70990 | -0.54901 | 6899 ft | 248 kts | 172° |
| 2026-05-05 05:36 | 51.69269 | -0.54692 | 6893 ft | 248 kts | 179° |
| 2026-05-05 05:36 | 51.67543 | -0.54624 | 6889 ft | 248 kts | 180° |
| 2026-05-05 05:37 | 51.65820 | -0.54695 | 6885 ft | 247 kts | 189° |
| 2026-05-05 05:37 | 51.64217 | -0.55596 | 6886 ft | 244 kts | 213° |
| 2026-05-05 05:37 | 51.62996 | -0.57453 | 6886 ft | 241 kts | 234° |
| 2026-05-05 05:37 | 51.62037 | -0.59669 | 6885 ft | 242 kts | 238° |
| 2026-05-05 05:38 | 51.61110 | -0.61924 | 6892 ft | 242 kts | 238° |
| 2026-05-05 05:38 | 51.60234 | -0.64233 | 6884 ft | 241 kts | 246° |
| 2026-05-05 05:38 | 51.59811 | -0.66737 | 6814 ft | 223 kts | 264° |
| 2026-05-05 05:38 | 51.59655 | -0.69111 | 6590 ft | 205 kts | 266° |
| 2026-05-05 05:39 | 51.59532 | -0.71325 | 6352 ft | 195 kts | 266° |
| 2026-05-05 05:39 | 51.59228 | -0.73442 | 6139 ft | 195 kts | 250° |
| 2026-05-05 05:39 | 51.58463 | -0.75247 | 5950 ft | 198 kts | 226° |
| 2026-05-05 05:39 | 51.57303 | -0.76422 | 5503 ft | 199 kts | 203° |
| 2026-05-05 05:40 | 51.55990 | -0.77120 | 4941 ft | 205 kts | 198° |
| 2026-05-05 05:40 | 51.54609 | -0.77761 | 4469 ft | 206 kts | 197° |
| 2026-05-05 05:40 | 51.53235 | -0.78394 | 3989 ft | 204 kts | 196° |
| 2026-05-05 05:40 | 51.51854 | -0.78701 | 3757 ft | 196 kts | 180° |
| 2026-05-05 05:41 | 51.50560 | -0.78324 | 3471 ft | 184 kts | 157° |
| 2026-05-05 05:41 | 51.49480 | -0.77364 | 3354 ft | 176 kts | 142° |
| 2026-05-05 05:41 | 51.48498 | -0.76199 | 3279 ft | 174 kts | 137° |
| 2026-05-05 05:41 | 51.47854 | -0.74609 | 3215 ft | 170 kts | 105° |
| 2026-05-05 05:42 | 51.47683 | -0.72791 | 3099 ft | 162 kts | 85° |
| 2026-05-05 05:42 | 51.47690 | -0.70993 | 2922 ft | 159 kts | 86° |
| 2026-05-05 05:42 | 51.47676 | -0.69278 | 2696 ft | 148 kts | 84° |
| 2026-05-05 05:42 | 51.47681 | -0.67684 | 2488 ft | 138 kts | 84° |
| 2026-05-05 05:43 | 51.47685 | -0.66206 | 2299 ft | 127 kts | 83° |
| 2026-05-05 05:43 | 51.47690 | -0.64810 | 2137 ft | 124 kts | 83° |
| 2026-05-05 05:43 | 51.47696 | -0.63425 | 1956 ft | 124 kts | 84° |
| 2026-05-05 05:43 | 51.47700 | -0.62043 | 1793 ft | 123 kts | 84° |
| 2026-05-05 05:44 | 51.47705 | -0.60670 | 1628 ft | 123 kts | 84° |
| 2026-05-05 05:44 | 51.47710 | -0.59300 | 1458 ft | 123 kts | 85° |
| 2026-05-05 05:44 | 51.47715 | -0.57928 | 1297 ft | 123 kts | 84° |
| 2026-05-05 05:44 | 51.47720 | -0.56556 | 1111 ft | 123 kts | 85° |
| 2026-05-05 05:45 | 51.47729 | -0.55177 | 926 ft | 124 kts | 86° |
| 2026-05-05 05:45 | 51.47724 | -0.53792 | 750 ft | 124 kts | 87° |
| 2026-05-05 05:45 | 51.47729 | -0.52398 | 617 ft | 127 kts | 87° |
| 2026-05-05 05:45 | 51.47739 | -0.50982 | 417 ft | 127 kts | 86° |
| 2026-05-05 05:46 | 51.47747 | -0.49580 | 256 ft | 125 kts | 87° |
| 2026-05-05 05:46 | 51.47752 | -0.48179 | 121 ft | 125 kts | 87° |
| 2026-05-05 05:46 | 51.47758 | -0.46844 | 97 ft | 108 kts | 90° |
| 2026-05-05 05:46 | 51.47759 | -0.46055 | 95 ft | 35 kts | 89° |
| 2026-05-05 05:47 | 51.47760 | -0.45676 | 93 ft | 30 kts | 90° |
| 2026-05-05 05:47 | 51.47746 | -0.45529 | 92 ft | 18 kts | 118° |
| 2026-05-05 05:47 | 51.47660 | -0.45468 | 93 ft | 6 kts | 178° |
| 2026-05-05 05:47 | 51.47599 | -0.45465 | 92 ft | 12 kts | 178° |
| 2026-05-05 05:48 | 51.47535 | -0.45474 | 97 ft | 8 kts | 205° |
| 2026-05-05 05:48 | 51.47514 | -0.45568 | 96 ft | 12 kts | 263° |
| 2026-05-05 05:48 | 51.47513 | -0.45733 | 95 ft | 18 kts | 275° |
| 2026-05-05 05:48 | 51.47517 | -0.45942 | 92 ft | 15 kts | 270° |
| 2026-05-05 05:49 | 51.47517 | -0.46134 | 92 ft | 20 kts | 270° |
| 2026-05-05 05:49 | 51.47516 | -0.46354 | 92 ft | 18 kts | 269° |
| 2026-05-05 05:49 | 51.47515 | -0.46547 | 92 ft | 18 kts | 270° |
| 2026-05-05 05:49 | 51.47504 | -0.46735 | 95 ft | 17 kts | 250° |
| 2026-05-05 05:50 | 51.47493 | -0.46934 | 94 ft | 15 kts | 269° |
| 2026-05-05 05:50 | 51.47492 | -0.47083 | 92 ft | 14 kts | 269° |
| 2026-05-05 05:50 | 51.47492 | -0.47269 | 92 ft | 19 kts | 269° |
| 2026-05-05 05:50 | 51.47491 | -0.47482 | 94 ft | 20 kts | 270° |
| 2026-05-05 05:51 | 51.47490 | -0.47689 | 93 ft | 20 kts | 269° |
| 2026-05-05 05:51 | 51.47489 | -0.47903 | 94 ft | 18 kts | 270° |
| 2026-05-05 05:51 | 51.47489 | -0.48120 | 95 ft | 21 kts | 270° |
| 2026-05-05 05:51 | 51.47488 | -0.48246 | 94 ft | 7 kts | 269° |
| 2026-05-05 05:52 | 51.47477 | -0.48338 | 97 ft | 9 kts | 225° |
| 2026-05-05 05:52 | 51.47391 | -0.48359 | 94 ft | 13 kts | 180° |
| 2026-05-05 05:52 | 51.47285 | -0.48358 | 95 ft | 16 kts | 179° |
| 2026-05-05 05:52 | 51.47169 | -0.48357 | 95 ft | 15 kts | 179° |
| 2026-05-05 05:53 | 51.47058 | -0.48356 | 96 ft | 16 kts | 180° |
| 2026-05-05 05:53 | 51.46970 | -0.48355 | 95 ft | 9 kts | 180° |
| 2026-05-05 05:53 | 51.46921 | -0.48324 | 96 ft | 8 kts | 128° |
| 2026-05-05 05:53 | 51.46915 | -0.48248 | 94 ft | 1 kts | 88° |
| 2026-05-05 05:54 | 51.46915 | -0.48238 | 94 ft | 0 kts | 89° |